<?xml version="1.0" encoding="UTF-8" standalone="no" ?>
<gpx xmlns="http://www.topografix.com/GPX/1/1" xmlns:xsi="http://www.w3.org/2001/XMLSchema-instance" xsi:schemaLocation="http://www.topografix.com/GPX/1/1 http://www.topografix.com/GPX/1/1/gpx.xsd" version="1.1" creator="VisuGPX - https://www.visugpx.com">
  <metadata>
    <name>MARZAN 9 km CTM</name>
    <desc><![CDATA[rv parking rue de la fontaine non loin de l'église saint pierre]]></desc>
  </metadata>
  <trk>
    <name><![CDATA[MARZAN 9 km CTM_1]]></name>
    <trkseg>
      <trkpt lat="47.54066" lon="-2.32351">
        <ele>16.700001</ele>
        <time>2012-01-04T10:20:20Z</time>
      </trkpt>
      <trkpt lat="47.54069" lon="-2.32342">
        <ele>16.4</ele>
        <time>2012-01-04T10:20:39Z</time>
      </trkpt>
      <trkpt lat="47.54073" lon="-2.3234">
        <ele>16.4</ele>
        <time>2012-01-04T10:20:40Z</time>
      </trkpt>
      <trkpt lat="47.54084" lon="-2.32342">
        <ele>16</ele>
        <time>2012-01-04T10:20:43Z</time>
      </trkpt>
      <trkpt lat="47.54091" lon="-2.32345">
        <ele>16.299999</ele>
        <time>2012-01-04T10:20:45Z</time>
      </trkpt>
      <trkpt lat="47.54097" lon="-2.32347">
        <ele>16.6</ele>
        <time>2012-01-04T10:20:47Z</time>
      </trkpt>
      <trkpt lat="47.54105" lon="-2.32351">
        <ele>16.799999</ele>
        <time>2012-01-04T10:20:50Z</time>
      </trkpt>
      <trkpt lat="47.54111" lon="-2.32354">
        <ele>17.799999</ele>
        <time>2012-01-04T10:20:52Z</time>
      </trkpt>
      <trkpt lat="47.54117" lon="-2.32357">
        <ele>17.9</ele>
        <time>2012-01-04T10:20:54Z</time>
      </trkpt>
      <trkpt lat="47.54125" lon="-2.32364">
        <ele>18.299999</ele>
        <time>2012-01-04T10:20:57Z</time>
      </trkpt>
      <trkpt lat="47.5413" lon="-2.32373">
        <ele>19.799999</ele>
        <time>2012-01-04T10:21:00Z</time>
      </trkpt>
      <trkpt lat="47.54135" lon="-2.32382">
        <ele>21.200001</ele>
        <time>2012-01-04T10:21:03Z</time>
      </trkpt>
      <trkpt lat="47.5414" lon="-2.32393">
        <ele>21.700001</ele>
        <time>2012-01-04T10:21:06Z</time>
      </trkpt>
      <trkpt lat="47.54145" lon="-2.32402">
        <ele>21.200001</ele>
        <time>2012-01-04T10:21:09Z</time>
      </trkpt>
      <trkpt lat="47.54153" lon="-2.32407">
        <ele>21.6</ele>
        <time>2012-01-04T10:21:12Z</time>
      </trkpt>
      <trkpt lat="47.54161" lon="-2.32408">
        <ele>21.700001</ele>
        <time>2012-01-04T10:21:15Z</time>
      </trkpt>
      <trkpt lat="47.54168" lon="-2.32403">
        <ele>23.299999</ele>
        <time>2012-01-04T10:21:18Z</time>
      </trkpt>
      <trkpt lat="47.54175" lon="-2.32397">
        <ele>23.6</ele>
        <time>2012-01-04T10:21:21Z</time>
      </trkpt>
      <trkpt lat="47.54182" lon="-2.32393">
        <ele>23.5</ele>
        <time>2012-01-04T10:21:24Z</time>
      </trkpt>
      <trkpt lat="47.5419" lon="-2.32388">
        <ele>23.700001</ele>
        <time>2012-01-04T10:21:28Z</time>
      </trkpt>
      <trkpt lat="47.54198" lon="-2.32384">
        <ele>24.5</ele>
        <time>2012-01-04T10:21:33Z</time>
      </trkpt>
      <trkpt lat="47.54207" lon="-2.32386">
        <ele>26.299999</ele>
        <time>2012-01-04T10:21:40Z</time>
      </trkpt>
      <trkpt lat="47.54208" lon="-2.32388">
        <ele>26.700001</ele>
        <time>2012-01-04T10:21:41Z</time>
      </trkpt>
      <trkpt lat="47.54215" lon="-2.32408">
        <ele>27.799999</ele>
        <time>2012-01-04T10:21:49Z</time>
      </trkpt>
      <trkpt lat="47.54217" lon="-2.32417">
        <ele>28.1</ele>
        <time>2012-01-04T10:21:51Z</time>
      </trkpt>
      <trkpt lat="47.54217" lon="-2.3243">
        <ele>28.1</ele>
        <time>2012-01-04T10:21:53Z</time>
      </trkpt>
      <trkpt lat="47.54221" lon="-2.32439">
        <ele>28.5</ele>
        <time>2012-01-04T10:21:55Z</time>
      </trkpt>
      <trkpt lat="47.54227" lon="-2.32448">
        <ele>28</ele>
        <time>2012-01-04T10:21:58Z</time>
      </trkpt>
      <trkpt lat="47.54234" lon="-2.3245">
        <ele>27.6</ele>
        <time>2012-01-04T10:22:01Z</time>
      </trkpt>
      <trkpt lat="47.54242" lon="-2.3245">
        <ele>27</ele>
        <time>2012-01-04T10:22:04Z</time>
      </trkpt>
      <trkpt lat="47.54251" lon="-2.32448">
        <ele>26.200001</ele>
        <time>2012-01-04T10:22:07Z</time>
      </trkpt>
      <trkpt lat="47.54256" lon="-2.32444">
        <ele>25.9</ele>
        <time>2012-01-04T10:22:09Z</time>
      </trkpt>
      <trkpt lat="47.54263" lon="-2.32436">
        <ele>25.4</ele>
        <time>2012-01-04T10:22:12Z</time>
      </trkpt>
      <trkpt lat="47.54268" lon="-2.32431">
        <ele>26</ele>
        <time>2012-01-04T10:22:14Z</time>
      </trkpt>
      <trkpt lat="47.54277" lon="-2.32431">
        <ele>26</ele>
        <time>2012-01-04T10:22:17Z</time>
      </trkpt>
      <trkpt lat="47.54284" lon="-2.3244">
        <ele>25.700001</ele>
        <time>2012-01-04T10:22:33Z</time>
      </trkpt>
      <trkpt lat="47.54288" lon="-2.32451">
        <ele>26</ele>
        <time>2012-01-04T10:23:27Z</time>
      </trkpt>
      <trkpt lat="47.54289" lon="-2.32454">
        <ele>25.9</ele>
        <time>2012-01-04T10:23:28Z</time>
      </trkpt>
      <trkpt lat="47.54298" lon="-2.3247">
        <ele>27.299999</ele>
        <time>2012-01-04T10:23:33Z</time>
      </trkpt>
      <trkpt lat="47.54305" lon="-2.32476">
        <ele>27.5</ele>
        <time>2012-01-04T10:23:36Z</time>
      </trkpt>
      <trkpt lat="47.54312" lon="-2.32478">
        <ele>27.1</ele>
        <time>2012-01-04T10:23:38Z</time>
      </trkpt>
      <trkpt lat="47.5432" lon="-2.32479">
        <ele>26.9</ele>
        <time>2012-01-04T10:23:40Z</time>
      </trkpt>
      <trkpt lat="47.54327" lon="-2.32481">
        <ele>26.9</ele>
        <time>2012-01-04T10:23:42Z</time>
      </trkpt>
      <trkpt lat="47.54334" lon="-2.32481">
        <ele>26.9</ele>
        <time>2012-01-04T10:23:44Z</time>
      </trkpt>
      <trkpt lat="47.54342" lon="-2.32481">
        <ele>27</ele>
        <time>2012-01-04T10:23:46Z</time>
      </trkpt>
      <trkpt lat="47.5435" lon="-2.32483">
        <ele>27.1</ele>
        <time>2012-01-04T10:23:48Z</time>
      </trkpt>
      <trkpt lat="47.54358" lon="-2.32484">
        <ele>27.299999</ele>
        <time>2012-01-04T10:23:50Z</time>
      </trkpt>
      <trkpt lat="47.54365" lon="-2.32484">
        <ele>27.4</ele>
        <time>2012-01-04T10:23:52Z</time>
      </trkpt>
      <trkpt lat="47.54373" lon="-2.32483">
        <ele>27.5</ele>
        <time>2012-01-04T10:23:54Z</time>
      </trkpt>
      <trkpt lat="47.5438" lon="-2.32484">
        <ele>27.6</ele>
        <time>2012-01-04T10:23:56Z</time>
      </trkpt>
      <trkpt lat="47.54386" lon="-2.32485">
        <ele>28</ele>
        <time>2012-01-04T10:23:58Z</time>
      </trkpt>
      <trkpt lat="47.54394" lon="-2.32486">
        <ele>28.5</ele>
        <time>2012-01-04T10:24:01Z</time>
      </trkpt>
      <trkpt lat="47.54402" lon="-2.32488">
        <ele>28.5</ele>
        <time>2012-01-04T10:24:04Z</time>
      </trkpt>
      <trkpt lat="47.54409" lon="-2.3249">
        <ele>29.1</ele>
        <time>2012-01-04T10:24:07Z</time>
      </trkpt>
      <trkpt lat="47.54417" lon="-2.32492">
        <ele>29.5</ele>
        <time>2012-01-04T10:24:10Z</time>
      </trkpt>
      <trkpt lat="47.54425" lon="-2.32494">
        <ele>30.9</ele>
        <time>2012-01-04T10:24:13Z</time>
      </trkpt>
      <trkpt lat="47.54431" lon="-2.32495">
        <ele>30.700001</ele>
        <time>2012-01-04T10:24:15Z</time>
      </trkpt>
      <trkpt lat="47.54437" lon="-2.32495">
        <ele>30.700001</ele>
        <time>2012-01-04T10:24:17Z</time>
      </trkpt>
      <trkpt lat="47.54444" lon="-2.32495">
        <ele>30.799999</ele>
        <time>2012-01-04T10:24:19Z</time>
      </trkpt>
      <trkpt lat="47.54452" lon="-2.32494">
        <ele>30.200001</ele>
        <time>2012-01-04T10:24:21Z</time>
      </trkpt>
      <trkpt lat="47.5446" lon="-2.32492">
        <ele>30.6</ele>
        <time>2012-01-04T10:24:23Z</time>
      </trkpt>
      <trkpt lat="47.54464" lon="-2.3249">
        <ele>31.200001</ele>
        <time>2012-01-04T10:24:24Z</time>
      </trkpt>
      <trkpt lat="47.54469" lon="-2.32488">
        <ele>31.6</ele>
        <time>2012-01-04T10:24:25Z</time>
      </trkpt>
      <trkpt lat="47.54474" lon="-2.32487">
        <ele>31.4</ele>
        <time>2012-01-04T10:24:26Z</time>
      </trkpt>
      <trkpt lat="47.54479" lon="-2.32485">
        <ele>31.299999</ele>
        <time>2012-01-04T10:24:27Z</time>
      </trkpt>
      <trkpt lat="47.54484" lon="-2.32483">
        <ele>31.200001</ele>
        <time>2012-01-04T10:24:28Z</time>
      </trkpt>
      <trkpt lat="47.5449" lon="-2.32481">
        <ele>31.1</ele>
        <time>2012-01-04T10:24:29Z</time>
      </trkpt>
      <trkpt lat="47.54496" lon="-2.32479">
        <ele>31</ele>
        <time>2012-01-04T10:24:30Z</time>
      </trkpt>
      <trkpt lat="47.54501" lon="-2.32477">
        <ele>30.9</ele>
        <time>2012-01-04T10:24:31Z</time>
      </trkpt>
      <trkpt lat="47.54507" lon="-2.32476">
        <ele>30.799999</ele>
        <time>2012-01-04T10:24:32Z</time>
      </trkpt>
      <trkpt lat="47.54513" lon="-2.32474">
        <ele>30.700001</ele>
        <time>2012-01-04T10:24:33Z</time>
      </trkpt>
      <trkpt lat="47.54519" lon="-2.32472">
        <ele>30.6</ele>
        <time>2012-01-04T10:24:34Z</time>
      </trkpt>
      <trkpt lat="47.54524" lon="-2.32471">
        <ele>30.5</ele>
        <time>2012-01-04T10:24:35Z</time>
      </trkpt>
      <trkpt lat="47.5453" lon="-2.32469">
        <ele>30.299999</ele>
        <time>2012-01-04T10:24:36Z</time>
      </trkpt>
      <trkpt lat="47.54535" lon="-2.32468">
        <ele>30.200001</ele>
        <time>2012-01-04T10:24:37Z</time>
      </trkpt>
      <trkpt lat="47.5454" lon="-2.32466">
        <ele>30.200001</ele>
        <time>2012-01-04T10:24:38Z</time>
      </trkpt>
      <trkpt lat="47.54545" lon="-2.32464">
        <ele>29.9</ele>
        <time>2012-01-04T10:24:39Z</time>
      </trkpt>
      <trkpt lat="47.5455" lon="-2.32462">
        <ele>29.700001</ele>
        <time>2012-01-04T10:24:40Z</time>
      </trkpt>
      <trkpt lat="47.54555" lon="-2.3246">
        <ele>29.6</ele>
        <time>2012-01-04T10:24:41Z</time>
      </trkpt>
      <trkpt lat="47.54559" lon="-2.32458">
        <ele>29.5</ele>
        <time>2012-01-04T10:24:42Z</time>
      </trkpt>
      <trkpt lat="47.54564" lon="-2.32456">
        <ele>29.4</ele>
        <time>2012-01-04T10:24:43Z</time>
      </trkpt>
      <trkpt lat="47.54568" lon="-2.32453">
        <ele>29.299999</ele>
        <time>2012-01-04T10:24:44Z</time>
      </trkpt>
      <trkpt lat="47.54572" lon="-2.32451">
        <ele>29.299999</ele>
        <time>2012-01-04T10:24:45Z</time>
      </trkpt>
      <trkpt lat="47.54581" lon="-2.32447">
        <ele>29.4</ele>
        <time>2012-01-04T10:24:47Z</time>
      </trkpt>
      <trkpt lat="47.54589" lon="-2.32443">
        <ele>29.6</ele>
        <time>2012-01-04T10:24:49Z</time>
      </trkpt>
      <trkpt lat="47.54597" lon="-2.32441">
        <ele>29.9</ele>
        <time>2012-01-04T10:24:51Z</time>
      </trkpt>
      <trkpt lat="47.54604" lon="-2.32438">
        <ele>30.200001</ele>
        <time>2012-01-04T10:24:53Z</time>
      </trkpt>
      <trkpt lat="47.54611" lon="-2.32436">
        <ele>30.4</ele>
        <time>2012-01-04T10:24:55Z</time>
      </trkpt>
      <trkpt lat="47.54617" lon="-2.32434">
        <ele>30.4</ele>
        <time>2012-01-04T10:24:57Z</time>
      </trkpt>
      <trkpt lat="47.54623" lon="-2.32431">
        <ele>30.200001</ele>
        <time>2012-01-04T10:24:59Z</time>
      </trkpt>
      <trkpt lat="47.54631" lon="-2.32428">
        <ele>30.6</ele>
        <time>2012-01-04T10:25:02Z</time>
      </trkpt>
      <trkpt lat="47.54638" lon="-2.32424">
        <ele>31.1</ele>
        <time>2012-01-04T10:25:05Z</time>
      </trkpt>
      <trkpt lat="47.54646" lon="-2.3242">
        <ele>31.9</ele>
        <time>2012-01-04T10:25:09Z</time>
      </trkpt>
      <trkpt lat="47.54655" lon="-2.32416">
        <ele>32.400002</ele>
        <time>2012-01-04T10:25:13Z</time>
      </trkpt>
      <trkpt lat="47.54663" lon="-2.32419">
        <ele>33.299999</ele>
        <time>2012-01-04T10:25:17Z</time>
      </trkpt>
      <trkpt lat="47.54668" lon="-2.32427">
        <ele>32.599998</ele>
        <time>2012-01-04T10:25:21Z</time>
      </trkpt>
      <trkpt lat="47.54673" lon="-2.32436">
        <ele>32.700001</ele>
        <time>2012-01-04T10:25:25Z</time>
      </trkpt>
      <trkpt lat="47.54678" lon="-2.32445">
        <ele>33.099998</ele>
        <time>2012-01-04T10:25:29Z</time>
      </trkpt>
      <trkpt lat="47.54684" lon="-2.32452">
        <ele>33.5</ele>
        <time>2012-01-04T10:25:32Z</time>
      </trkpt>
      <trkpt lat="47.54685" lon="-2.32455">
        <ele>34.099998</ele>
        <time>2012-01-04T10:25:33Z</time>
      </trkpt>
      <trkpt lat="47.54694" lon="-2.3247">
        <ele>33.599998</ele>
        <time>2012-01-04T10:25:39Z</time>
      </trkpt>
      <trkpt lat="47.54699" lon="-2.32479">
        <ele>32.700001</ele>
        <time>2012-01-04T10:25:42Z</time>
      </trkpt>
      <trkpt lat="47.54704" lon="-2.32489">
        <ele>33.400002</ele>
        <time>2012-01-04T10:25:45Z</time>
      </trkpt>
      <trkpt lat="47.54708" lon="-2.32498">
        <ele>33</ele>
        <time>2012-01-04T10:25:48Z</time>
      </trkpt>
      <trkpt lat="47.54713" lon="-2.32507">
        <ele>33.299999</ele>
        <time>2012-01-04T10:25:51Z</time>
      </trkpt>
      <trkpt lat="47.54717" lon="-2.32519">
        <ele>34.799999</ele>
        <time>2012-01-04T10:25:54Z</time>
      </trkpt>
      <trkpt lat="47.54721" lon="-2.32529">
        <ele>34.5</ele>
        <time>2012-01-04T10:25:57Z</time>
      </trkpt>
      <trkpt lat="47.54724" lon="-2.32541">
        <ele>34.700001</ele>
        <time>2012-01-04T10:26:00Z</time>
      </trkpt>
      <trkpt lat="47.54726" lon="-2.32549">
        <ele>34.700001</ele>
        <time>2012-01-04T10:26:02Z</time>
      </trkpt>
      <trkpt lat="47.54731" lon="-2.32559">
        <ele>34.599998</ele>
        <time>2012-01-04T10:26:05Z</time>
      </trkpt>
      <trkpt lat="47.54732" lon="-2.32569">
        <ele>34.599998</ele>
        <time>2012-01-04T10:26:07Z</time>
      </trkpt>
      <trkpt lat="47.54731" lon="-2.32578">
        <ele>34.400002</ele>
        <time>2012-01-04T10:26:09Z</time>
      </trkpt>
      <trkpt lat="47.54728" lon="-2.32589">
        <ele>34.5</ele>
        <time>2012-01-04T10:26:12Z</time>
      </trkpt>
      <trkpt lat="47.54727" lon="-2.32602">
        <ele>34.400002</ele>
        <time>2012-01-04T10:26:15Z</time>
      </trkpt>
      <trkpt lat="47.54726" lon="-2.32612">
        <ele>34.299999</ele>
        <time>2012-01-04T10:26:17Z</time>
      </trkpt>
      <trkpt lat="47.54726" lon="-2.32625">
        <ele>34.299999</ele>
        <time>2012-01-04T10:26:19Z</time>
      </trkpt>
      <trkpt lat="47.54726" lon="-2.32632">
        <ele>34.299999</ele>
        <time>2012-01-04T10:26:20Z</time>
      </trkpt>
      <trkpt lat="47.54726" lon="-2.32645">
        <ele>33.700001</ele>
        <time>2012-01-04T10:26:22Z</time>
      </trkpt>
      <trkpt lat="47.54727" lon="-2.32657">
        <ele>33</ele>
        <time>2012-01-04T10:26:24Z</time>
      </trkpt>
      <trkpt lat="47.54729" lon="-2.32667">
        <ele>32.299999</ele>
        <time>2012-01-04T10:26:26Z</time>
      </trkpt>
      <trkpt lat="47.54732" lon="-2.32675">
        <ele>31</ele>
        <time>2012-01-04T10:26:28Z</time>
      </trkpt>
      <trkpt lat="47.54737" lon="-2.32679">
        <ele>30.1</ele>
        <time>2012-01-04T10:26:30Z</time>
      </trkpt>
      <trkpt lat="47.54744" lon="-2.32678">
        <ele>29.4</ele>
        <time>2012-01-04T10:26:32Z</time>
      </trkpt>
      <trkpt lat="47.5475" lon="-2.32675">
        <ele>28.799999</ele>
        <time>2012-01-04T10:26:34Z</time>
      </trkpt>
      <trkpt lat="47.54753" lon="-2.32674">
        <ele>28.6</ele>
        <time>2012-01-04T10:26:35Z</time>
      </trkpt>
      <trkpt lat="47.54764" lon="-2.32674">
        <ele>29.1</ele>
        <time>2012-01-04T10:26:38Z</time>
      </trkpt>
      <trkpt lat="47.54773" lon="-2.32675">
        <ele>28.700001</ele>
        <time>2012-01-04T10:26:40Z</time>
      </trkpt>
      <trkpt lat="47.54779" lon="-2.32674">
        <ele>27.799999</ele>
        <time>2012-01-04T10:26:42Z</time>
      </trkpt>
      <trkpt lat="47.54788" lon="-2.32671">
        <ele>27.6</ele>
        <time>2012-01-04T10:26:44Z</time>
      </trkpt>
      <trkpt lat="47.54795" lon="-2.32668">
        <ele>26.6</ele>
        <time>2012-01-04T10:26:46Z</time>
      </trkpt>
      <trkpt lat="47.54803" lon="-2.32666">
        <ele>25</ele>
        <time>2012-01-04T10:26:49Z</time>
      </trkpt>
      <trkpt lat="47.5481" lon="-2.32674">
        <ele>23.700001</ele>
        <time>2012-01-04T10:26:52Z</time>
      </trkpt>
      <trkpt lat="47.54813" lon="-2.32684">
        <ele>22.799999</ele>
        <time>2012-01-04T10:26:54Z</time>
      </trkpt>
      <trkpt lat="47.54815" lon="-2.32696">
        <ele>22.5</ele>
        <time>2012-01-04T10:26:56Z</time>
      </trkpt>
      <trkpt lat="47.54817" lon="-2.32709">
        <ele>22.4</ele>
        <time>2012-01-04T10:26:58Z</time>
      </trkpt>
      <trkpt lat="47.54819" lon="-2.32721">
        <ele>22.4</ele>
        <time>2012-01-04T10:27:00Z</time>
      </trkpt>
      <trkpt lat="47.54821" lon="-2.32732">
        <ele>22</ele>
        <time>2012-01-04T10:27:02Z</time>
      </trkpt>
      <trkpt lat="47.54826" lon="-2.32741">
        <ele>21</ele>
        <time>2012-01-04T10:27:05Z</time>
      </trkpt>
      <trkpt lat="47.54833" lon="-2.32741">
        <ele>20.4</ele>
        <time>2012-01-04T10:27:07Z</time>
      </trkpt>
      <trkpt lat="47.54841" lon="-2.32736">
        <ele>19.299999</ele>
        <time>2012-01-04T10:27:09Z</time>
      </trkpt>
      <trkpt lat="47.54848" lon="-2.32732">
        <ele>18.4</ele>
        <time>2012-01-04T10:27:11Z</time>
      </trkpt>
      <trkpt lat="47.54855" lon="-2.32729">
        <ele>17.700001</ele>
        <time>2012-01-04T10:27:13Z</time>
      </trkpt>
      <trkpt lat="47.54863" lon="-2.3273">
        <ele>17.200001</ele>
        <time>2012-01-04T10:27:16Z</time>
      </trkpt>
      <trkpt lat="47.5487" lon="-2.32736">
        <ele>15.1</ele>
        <time>2012-01-04T10:27:29Z</time>
      </trkpt>
      <trkpt lat="47.54876" lon="-2.32745">
        <ele>13.8</ele>
        <time>2012-01-04T10:27:36Z</time>
      </trkpt>
      <trkpt lat="47.54877" lon="-2.32745">
        <ele>13.7</ele>
        <time>2012-01-04T10:27:37Z</time>
      </trkpt>
      <trkpt lat="47.54885" lon="-2.3276">
        <ele>12.9</ele>
        <time>2012-01-04T10:27:42Z</time>
      </trkpt>
      <trkpt lat="47.5489" lon="-2.32769">
        <ele>13</ele>
        <time>2012-01-04T10:27:44Z</time>
      </trkpt>
      <trkpt lat="47.54895" lon="-2.32779">
        <ele>12.4</ele>
        <time>2012-01-04T10:27:46Z</time>
      </trkpt>
      <trkpt lat="47.54899" lon="-2.3279">
        <ele>11.5</ele>
        <time>2012-01-04T10:27:48Z</time>
      </trkpt>
      <trkpt lat="47.54903" lon="-2.328">
        <ele>11</ele>
        <time>2012-01-04T10:27:50Z</time>
      </trkpt>
      <trkpt lat="47.54905" lon="-2.32806">
        <ele>10.8</ele>
        <time>2012-01-04T10:27:51Z</time>
      </trkpt>
      <trkpt lat="47.54907" lon="-2.32813">
        <ele>10.6</ele>
        <time>2012-01-04T10:27:52Z</time>
      </trkpt>
      <trkpt lat="47.54908" lon="-2.32819">
        <ele>9.8</ele>
        <time>2012-01-04T10:27:53Z</time>
      </trkpt>
      <trkpt lat="47.5491" lon="-2.32825">
        <ele>9.2</ele>
        <time>2012-01-04T10:27:54Z</time>
      </trkpt>
      <trkpt lat="47.54911" lon="-2.32832">
        <ele>8.7</ele>
        <time>2012-01-04T10:27:55Z</time>
      </trkpt>
      <trkpt lat="47.54912" lon="-2.32839">
        <ele>8.4</ele>
        <time>2012-01-04T10:27:56Z</time>
      </trkpt>
      <trkpt lat="47.54913" lon="-2.32846">
        <ele>8.1</ele>
        <time>2012-01-04T10:27:57Z</time>
      </trkpt>
      <trkpt lat="47.54914" lon="-2.32854">
        <ele>8</ele>
        <time>2012-01-04T10:27:58Z</time>
      </trkpt>
      <trkpt lat="47.54915" lon="-2.32862">
        <ele>6.9</ele>
        <time>2012-01-04T10:27:59Z</time>
      </trkpt>
      <trkpt lat="47.54916" lon="-2.3287">
        <ele>6.2</ele>
        <time>2012-01-04T10:28:00Z</time>
      </trkpt>
      <trkpt lat="47.54916" lon="-2.32878">
        <ele>5.6</ele>
        <time>2012-01-04T10:28:01Z</time>
      </trkpt>
      <trkpt lat="47.54916" lon="-2.32885">
        <ele>5.5</ele>
        <time>2012-01-04T10:28:02Z</time>
      </trkpt>
      <trkpt lat="47.54916" lon="-2.32893">
        <ele>5.4</ele>
        <time>2012-01-04T10:28:03Z</time>
      </trkpt>
      <trkpt lat="47.54918" lon="-2.32905">
        <ele>4.8</ele>
        <time>2012-01-04T10:28:05Z</time>
      </trkpt>
      <trkpt lat="47.5492" lon="-2.32918">
        <ele>4.2</ele>
        <time>2012-01-04T10:28:07Z</time>
      </trkpt>
      <trkpt lat="47.54922" lon="-2.32925">
        <ele>4</ele>
        <time>2012-01-04T10:28:08Z</time>
      </trkpt>
      <trkpt lat="47.54924" lon="-2.32932">
        <ele>3.2</ele>
        <time>2012-01-04T10:28:09Z</time>
      </trkpt>
      <trkpt lat="47.54926" lon="-2.3294">
        <ele>2.5</ele>
        <time>2012-01-04T10:28:10Z</time>
      </trkpt>
      <trkpt lat="47.54929" lon="-2.32947">
        <ele>2.1</ele>
        <time>2012-01-04T10:28:11Z</time>
      </trkpt>
      <trkpt lat="47.54931" lon="-2.32955">
        <ele>1.3</ele>
        <time>2012-01-04T10:28:12Z</time>
      </trkpt>
      <trkpt lat="47.54933" lon="-2.32963">
        <ele>0.8</ele>
        <time>2012-01-04T10:28:13Z</time>
      </trkpt>
      <trkpt lat="47.54936" lon="-2.3297">
        <ele>0.4</ele>
        <time>2012-01-04T10:28:14Z</time>
      </trkpt>
      <trkpt lat="47.54938" lon="-2.32977">
        <ele>0.1</ele>
        <time>2012-01-04T10:28:15Z</time>
      </trkpt>
      <trkpt lat="47.5494" lon="-2.32984">
        <ele>25</ele>
        <time>2012-01-04T10:28:16Z</time>
      </trkpt>
      <trkpt lat="47.54942" lon="-2.3299">
        <ele>-0.1</ele>
        <time>2012-01-04T10:28:17Z</time>
      </trkpt>
      <trkpt lat="47.54945" lon="-2.32997">
        <ele>-1.1</ele>
        <time>2012-01-04T10:28:18Z</time>
      </trkpt>
      <trkpt lat="47.54947" lon="-2.33003">
        <ele>-1.8</ele>
        <time>2012-01-04T10:28:19Z</time>
      </trkpt>
      <trkpt lat="47.54951" lon="-2.33008">
        <ele>-2.3</ele>
        <time>2012-01-04T10:28:20Z</time>
      </trkpt>
      <trkpt lat="47.54955" lon="-2.33014">
        <ele>-2.8</ele>
        <time>2012-01-04T10:28:21Z</time>
      </trkpt>
      <trkpt lat="47.54958" lon="-2.33018">
        <ele>-3.1</ele>
        <time>2012-01-04T10:28:22Z</time>
      </trkpt>
      <trkpt lat="47.54961" lon="-2.33023">
        <ele>-3.4</ele>
        <time>2012-01-04T10:28:23Z</time>
      </trkpt>
      <trkpt lat="47.54965" lon="-2.33027">
        <ele>-4.2</ele>
        <time>2012-01-04T10:28:24Z</time>
      </trkpt>
      <trkpt lat="47.54973" lon="-2.33033">
        <ele>-5.3</ele>
        <time>2012-01-04T10:28:26Z</time>
      </trkpt>
      <trkpt lat="47.5498" lon="-2.33036">
        <ele>-6</ele>
        <time>2012-01-04T10:28:28Z</time>
      </trkpt>
      <trkpt lat="47.54988" lon="-2.33036">
        <ele>-6.4</ele>
        <time>2012-01-04T10:28:30Z</time>
      </trkpt>
      <trkpt lat="47.54996" lon="-2.33038">
        <ele>-8.6</ele>
        <time>2012-01-04T10:28:32Z</time>
      </trkpt>
      <trkpt lat="47.55002" lon="-2.33042">
        <ele>-9.4</ele>
        <time>2012-01-04T10:28:34Z</time>
      </trkpt>
      <trkpt lat="47.55009" lon="-2.33048">
        <ele>-9.6</ele>
        <time>2012-01-04T10:28:36Z</time>
      </trkpt>
      <trkpt lat="47.55015" lon="-2.33055">
        <ele>-10.7</ele>
        <time>2012-01-04T10:28:38Z</time>
      </trkpt>
      <trkpt lat="47.55018" lon="-2.33057">
        <ele>-11</ele>
        <time>2012-01-04T10:28:39Z</time>
      </trkpt>
      <trkpt lat="47.55026" lon="-2.33068">
        <ele>-13.2</ele>
        <time>2012-01-04T10:28:43Z</time>
      </trkpt>
      <trkpt lat="47.55029" lon="-2.33077">
        <ele>-15</ele>
        <time>2012-01-04T10:28:46Z</time>
      </trkpt>
      <trkpt lat="47.5503" lon="-2.33089">
        <ele>-16.799999</ele>
        <time>2012-01-04T10:28:49Z</time>
      </trkpt>
      <trkpt lat="47.55031" lon="-2.33099">
        <ele>-17.9</ele>
        <time>2012-01-04T10:28:52Z</time>
      </trkpt>
      <trkpt lat="47.55032" lon="-2.3311">
        <ele>-18.5</ele>
        <time>2012-01-04T10:28:55Z</time>
      </trkpt>
      <trkpt lat="47.55036" lon="-2.33121">
        <ele>-19</ele>
        <time>2012-01-04T10:29:03Z</time>
      </trkpt>
      <trkpt lat="47.55041" lon="-2.33131">
        <ele>-19.299999</ele>
        <time>2012-01-04T10:29:19Z</time>
      </trkpt>
      <trkpt lat="47.55043" lon="-2.33142">
        <ele>-19.200001</ele>
        <time>2012-01-04T10:29:25Z</time>
      </trkpt>
      <trkpt lat="47.55045" lon="-2.33152">
        <ele>-18.9</ele>
        <time>2012-01-04T10:29:28Z</time>
      </trkpt>
      <trkpt lat="47.55048" lon="-2.33164">
        <ele>-18.799999</ele>
        <time>2012-01-04T10:29:31Z</time>
      </trkpt>
      <trkpt lat="47.55051" lon="-2.33172">
        <ele>-19</ele>
        <time>2012-01-04T10:29:33Z</time>
      </trkpt>
      <trkpt lat="47.55054" lon="-2.3318">
        <ele>-18.200001</ele>
        <time>2012-01-04T10:29:35Z</time>
      </trkpt>
      <trkpt lat="47.55058" lon="-2.33188">
        <ele>-17.799999</ele>
        <time>2012-01-04T10:29:37Z</time>
      </trkpt>
      <trkpt lat="47.55062" lon="-2.33197">
        <ele>-18.299999</ele>
        <time>2012-01-04T10:29:39Z</time>
      </trkpt>
      <trkpt lat="47.55064" lon="-2.33202">
        <ele>-18.5</ele>
        <time>2012-01-04T10:29:40Z</time>
      </trkpt>
      <trkpt lat="47.55071" lon="-2.33216">
        <ele>-18.299999</ele>
        <time>2012-01-04T10:29:43Z</time>
      </trkpt>
      <trkpt lat="47.55074" lon="-2.33223">
        <ele>-18.5</ele>
        <time>2012-01-04T10:29:45Z</time>
      </trkpt>
      <trkpt lat="47.55078" lon="-2.33231">
        <ele>-18.799999</ele>
        <time>2012-01-04T10:29:47Z</time>
      </trkpt>
      <trkpt lat="47.55081" lon="-2.33238">
        <ele>-19.200001</ele>
        <time>2012-01-04T10:29:49Z</time>
      </trkpt>
      <trkpt lat="47.55087" lon="-2.33247">
        <ele>-19.6</ele>
        <time>2012-01-04T10:29:52Z</time>
      </trkpt>
      <trkpt lat="47.55091" lon="-2.33254">
        <ele>-19.200001</ele>
        <time>2012-01-04T10:29:55Z</time>
      </trkpt>
      <trkpt lat="47.55097" lon="-2.33264">
        <ele>-19.6</ele>
        <time>2012-01-04T10:29:58Z</time>
      </trkpt>
      <trkpt lat="47.55099" lon="-2.33272">
        <ele>-19.5</ele>
        <time>2012-01-04T10:30:00Z</time>
      </trkpt>
      <trkpt lat="47.55102" lon="-2.33281">
        <ele>-19.200001</ele>
        <time>2012-01-04T10:30:02Z</time>
      </trkpt>
      <trkpt lat="47.55105" lon="-2.33293">
        <ele>-18.4</ele>
        <time>2012-01-04T10:30:05Z</time>
      </trkpt>
      <trkpt lat="47.55107" lon="-2.33305">
        <ele>-9.7</ele>
        <time>2012-01-04T10:30:08Z</time>
      </trkpt>
      <trkpt lat="47.55108" lon="-2.33316">
        <ele>5.1</ele>
        <time>2012-01-04T10:30:11Z</time>
      </trkpt>
      <trkpt lat="47.55108" lon="-2.33329">
        <ele>14.8</ele>
        <time>2012-01-04T10:30:18Z</time>
      </trkpt>
      <trkpt lat="47.55106" lon="-2.33342">
        <ele>17.299999</ele>
        <time>2012-01-04T10:30:32Z</time>
      </trkpt>
      <trkpt lat="47.55108" lon="-2.33354">
        <ele>17.799999</ele>
        <time>2012-01-04T10:30:37Z</time>
      </trkpt>
      <trkpt lat="47.5511" lon="-2.33364">
        <ele>17.9</ele>
        <time>2012-01-04T10:30:41Z</time>
      </trkpt>
      <trkpt lat="47.5511" lon="-2.33367">
        <ele>18.1</ele>
        <time>2012-01-04T10:30:42Z</time>
      </trkpt>
      <trkpt lat="47.55112" lon="-2.33387">
        <ele>19.5</ele>
        <time>2012-01-04T10:30:50Z</time>
      </trkpt>
      <trkpt lat="47.55111" lon="-2.33398">
        <ele>20.299999</ele>
        <time>2012-01-04T10:30:54Z</time>
      </trkpt>
      <trkpt lat="47.55108" lon="-2.33408">
        <ele>20.700001</ele>
        <time>2012-01-04T10:30:57Z</time>
      </trkpt>
      <trkpt lat="47.55105" lon="-2.33417">
        <ele>20.200001</ele>
        <time>2012-01-04T10:31:00Z</time>
      </trkpt>
      <trkpt lat="47.55099" lon="-2.33425">
        <ele>20.200001</ele>
        <time>2012-01-04T10:31:04Z</time>
      </trkpt>
      <trkpt lat="47.55093" lon="-2.33431">
        <ele>20.4</ele>
        <time>2012-01-04T10:31:07Z</time>
      </trkpt>
      <trkpt lat="47.55087" lon="-2.33436">
        <ele>20.5</ele>
        <time>2012-01-04T10:31:10Z</time>
      </trkpt>
      <trkpt lat="47.55081" lon="-2.33443">
        <ele>21.1</ele>
        <time>2012-01-04T10:31:13Z</time>
      </trkpt>
      <trkpt lat="47.55075" lon="-2.33448">
        <ele>21.799999</ele>
        <time>2012-01-04T10:31:16Z</time>
      </trkpt>
      <trkpt lat="47.55068" lon="-2.33457">
        <ele>21.4</ele>
        <time>2012-01-04T10:31:20Z</time>
      </trkpt>
      <trkpt lat="47.55067" lon="-2.33468">
        <ele>21.1</ele>
        <time>2012-01-04T10:31:23Z</time>
      </trkpt>
      <trkpt lat="47.55068" lon="-2.3348">
        <ele>21.1</ele>
        <time>2012-01-04T10:31:26Z</time>
      </trkpt>
      <trkpt lat="47.55067" lon="-2.33492">
        <ele>20.299999</ele>
        <time>2012-01-04T10:31:30Z</time>
      </trkpt>
      <trkpt lat="47.55064" lon="-2.33503">
        <ele>21.299999</ele>
        <time>2012-01-04T10:31:39Z</time>
      </trkpt>
      <trkpt lat="47.55065" lon="-2.33516">
        <ele>24.4</ele>
        <time>2012-01-04T10:31:52Z</time>
      </trkpt>
      <trkpt lat="47.55065" lon="-2.33517">
        <ele>24.799999</ele>
        <time>2012-01-04T10:31:53Z</time>
      </trkpt>
      <trkpt lat="47.55069" lon="-2.33539">
        <ele>27.4</ele>
        <time>2012-01-04T10:32:08Z</time>
      </trkpt>
      <trkpt lat="47.55069" lon="-2.33549">
        <ele>27.5</ele>
        <time>2012-01-04T10:32:11Z</time>
      </trkpt>
      <trkpt lat="47.5507" lon="-2.33561">
        <ele>28.1</ele>
        <time>2012-01-04T10:32:14Z</time>
      </trkpt>
      <trkpt lat="47.55072" lon="-2.33573">
        <ele>28.4</ele>
        <time>2012-01-04T10:32:17Z</time>
      </trkpt>
      <trkpt lat="47.55073" lon="-2.33586">
        <ele>28.700001</ele>
        <time>2012-01-04T10:32:20Z</time>
      </trkpt>
      <trkpt lat="47.55075" lon="-2.33598">
        <ele>29</ele>
        <time>2012-01-04T10:32:23Z</time>
      </trkpt>
      <trkpt lat="47.55076" lon="-2.33608">
        <ele>29.200001</ele>
        <time>2012-01-04T10:32:25Z</time>
      </trkpt>
      <trkpt lat="47.55077" lon="-2.33617">
        <ele>28.700001</ele>
        <time>2012-01-04T10:32:27Z</time>
      </trkpt>
      <trkpt lat="47.55075" lon="-2.33628">
        <ele>28.700001</ele>
        <time>2012-01-04T10:32:30Z</time>
      </trkpt>
      <trkpt lat="47.55072" lon="-2.3364">
        <ele>27.6</ele>
        <time>2012-01-04T10:32:34Z</time>
      </trkpt>
      <trkpt lat="47.55069" lon="-2.3365">
        <ele>29.6</ele>
        <time>2012-01-04T10:32:38Z</time>
      </trkpt>
      <trkpt lat="47.55066" lon="-2.33661">
        <ele>31</ele>
        <time>2012-01-04T10:32:42Z</time>
      </trkpt>
      <trkpt lat="47.55063" lon="-2.33671">
        <ele>32.200001</ele>
        <time>2012-01-04T10:32:46Z</time>
      </trkpt>
      <trkpt lat="47.5506" lon="-2.33681">
        <ele>32.799999</ele>
        <time>2012-01-04T10:32:50Z</time>
      </trkpt>
      <trkpt lat="47.55057" lon="-2.33691">
        <ele>33.799999</ele>
        <time>2012-01-04T10:32:54Z</time>
      </trkpt>
      <trkpt lat="47.55056" lon="-2.33694">
        <ele>33.799999</ele>
        <time>2012-01-04T10:32:55Z</time>
      </trkpt>
      <trkpt lat="47.55049" lon="-2.33715">
        <ele>35.200001</ele>
        <time>2012-01-04T10:33:02Z</time>
      </trkpt>
      <trkpt lat="47.55045" lon="-2.33726">
        <ele>35.799999</ele>
        <time>2012-01-04T10:33:06Z</time>
      </trkpt>
      <trkpt lat="47.5504" lon="-2.33736">
        <ele>37.5</ele>
        <time>2012-01-04T10:33:11Z</time>
      </trkpt>
      <trkpt lat="47.55032" lon="-2.33739">
        <ele>37.400002</ele>
        <time>2012-01-04T10:33:16Z</time>
      </trkpt>
      <trkpt lat="47.55024" lon="-2.33742">
        <ele>37.799999</ele>
        <time>2012-01-04T10:33:21Z</time>
      </trkpt>
      <trkpt lat="47.55017" lon="-2.33746">
        <ele>37.400002</ele>
        <time>2012-01-04T10:33:26Z</time>
      </trkpt>
      <trkpt lat="47.55008" lon="-2.3375">
        <ele>37.599998</ele>
        <time>2012-01-04T10:33:30Z</time>
      </trkpt>
      <trkpt lat="47.55" lon="-2.33754">
        <ele>37</ele>
        <time>2012-01-04T10:33:33Z</time>
      </trkpt>
      <trkpt lat="47.54992" lon="-2.3376">
        <ele>37.099998</ele>
        <time>2012-01-04T10:33:36Z</time>
      </trkpt>
      <trkpt lat="47.54987" lon="-2.33765">
        <ele>37.599998</ele>
        <time>2012-01-04T10:33:38Z</time>
      </trkpt>
      <trkpt lat="47.54982" lon="-2.3377">
        <ele>37.299999</ele>
        <time>2012-01-04T10:33:40Z</time>
      </trkpt>
      <trkpt lat="47.54977" lon="-2.33775">
        <ele>37.400002</ele>
        <time>2012-01-04T10:33:42Z</time>
      </trkpt>
      <trkpt lat="47.54972" lon="-2.3378">
        <ele>37.599998</ele>
        <time>2012-01-04T10:33:44Z</time>
      </trkpt>
      <trkpt lat="47.54966" lon="-2.33785">
        <ele>36.900002</ele>
        <time>2012-01-04T10:33:46Z</time>
      </trkpt>
      <trkpt lat="47.5496" lon="-2.33792">
        <ele>36.900002</ele>
        <time>2012-01-04T10:33:48Z</time>
      </trkpt>
      <trkpt lat="47.54954" lon="-2.33798">
        <ele>37.200001</ele>
        <time>2012-01-04T10:33:50Z</time>
      </trkpt>
      <trkpt lat="47.54948" lon="-2.33805">
        <ele>36.799999</ele>
        <time>2012-01-04T10:33:52Z</time>
      </trkpt>
      <trkpt lat="47.54941" lon="-2.33811">
        <ele>36.700001</ele>
        <time>2012-01-04T10:33:54Z</time>
      </trkpt>
      <trkpt lat="47.54937" lon="-2.33814">
        <ele>36.599998</ele>
        <time>2012-01-04T10:33:55Z</time>
      </trkpt>
      <trkpt lat="47.54927" lon="-2.33824">
        <ele>36.200001</ele>
        <time>2012-01-04T10:33:58Z</time>
      </trkpt>
      <trkpt lat="47.54921" lon="-2.3383">
        <ele>35.900002</ele>
        <time>2012-01-04T10:34:00Z</time>
      </trkpt>
      <trkpt lat="47.54915" lon="-2.33835">
        <ele>35.599998</ele>
        <time>2012-01-04T10:34:02Z</time>
      </trkpt>
      <trkpt lat="47.5491" lon="-2.33839">
        <ele>35.400002</ele>
        <time>2012-01-04T10:34:04Z</time>
      </trkpt>
      <trkpt lat="47.54904" lon="-2.33844">
        <ele>35.299999</ele>
        <time>2012-01-04T10:34:06Z</time>
      </trkpt>
      <trkpt lat="47.54897" lon="-2.33847">
        <ele>35.200001</ele>
        <time>2012-01-04T10:34:08Z</time>
      </trkpt>
      <trkpt lat="47.54891" lon="-2.3385">
        <ele>35.200001</ele>
        <time>2012-01-04T10:34:10Z</time>
      </trkpt>
      <trkpt lat="47.54885" lon="-2.33853">
        <ele>35.299999</ele>
        <time>2012-01-04T10:34:12Z</time>
      </trkpt>
      <trkpt lat="47.54879" lon="-2.33856">
        <ele>35.200001</ele>
        <time>2012-01-04T10:34:14Z</time>
      </trkpt>
      <trkpt lat="47.54871" lon="-2.3386">
        <ele>34.599998</ele>
        <time>2012-01-04T10:34:17Z</time>
      </trkpt>
      <trkpt lat="47.54863" lon="-2.33864">
        <ele>34.200001</ele>
        <time>2012-01-04T10:34:20Z</time>
      </trkpt>
      <trkpt lat="47.54855" lon="-2.33869">
        <ele>34.799999</ele>
        <time>2012-01-04T10:34:23Z</time>
      </trkpt>
      <trkpt lat="47.54847" lon="-2.3387">
        <ele>35.400002</ele>
        <time>2012-01-04T10:34:27Z</time>
      </trkpt>
      <trkpt lat="47.54842" lon="-2.33863">
        <ele>35.599998</ele>
        <time>2012-01-04T10:34:31Z</time>
      </trkpt>
      <trkpt lat="47.54837" lon="-2.33854">
        <ele>36</ele>
        <time>2012-01-04T10:34:34Z</time>
      </trkpt>
      <trkpt lat="47.54831" lon="-2.33845">
        <ele>35.299999</ele>
        <time>2012-01-04T10:34:37Z</time>
      </trkpt>
      <trkpt lat="47.54826" lon="-2.33838">
        <ele>35.200001</ele>
        <time>2012-01-04T10:34:39Z</time>
      </trkpt>
      <trkpt lat="47.54822" lon="-2.33832">
        <ele>35.400002</ele>
        <time>2012-01-04T10:34:41Z</time>
      </trkpt>
      <trkpt lat="47.54816" lon="-2.33826">
        <ele>35.400002</ele>
        <time>2012-01-04T10:34:43Z</time>
      </trkpt>
      <trkpt lat="47.54811" lon="-2.3382">
        <ele>35.5</ele>
        <time>2012-01-04T10:34:45Z</time>
      </trkpt>
      <trkpt lat="47.54804" lon="-2.33813">
        <ele>35.599998</ele>
        <time>2012-01-04T10:34:48Z</time>
      </trkpt>
      <trkpt lat="47.54797" lon="-2.33807">
        <ele>34.599998</ele>
        <time>2012-01-04T10:35:25Z</time>
      </trkpt>
      <trkpt lat="47.54795" lon="-2.33806">
        <ele>34.5</ele>
        <time>2012-01-04T10:35:26Z</time>
      </trkpt>
      <trkpt lat="47.54785" lon="-2.33796">
        <ele>35</ele>
        <time>2012-01-04T10:35:31Z</time>
      </trkpt>
      <trkpt lat="47.5478" lon="-2.33791">
        <ele>35</ele>
        <time>2012-01-04T10:35:33Z</time>
      </trkpt>
      <trkpt lat="47.54774" lon="-2.33784">
        <ele>35</ele>
        <time>2012-01-04T10:35:35Z</time>
      </trkpt>
      <trkpt lat="47.54769" lon="-2.33778">
        <ele>35.5</ele>
        <time>2012-01-04T10:35:37Z</time>
      </trkpt>
      <trkpt lat="47.54763" lon="-2.33771">
        <ele>35.5</ele>
        <time>2012-01-04T10:35:39Z</time>
      </trkpt>
      <trkpt lat="47.54757" lon="-2.33765">
        <ele>35.299999</ele>
        <time>2012-01-04T10:35:41Z</time>
      </trkpt>
      <trkpt lat="47.54751" lon="-2.33759">
        <ele>35.5</ele>
        <time>2012-01-04T10:35:43Z</time>
      </trkpt>
      <trkpt lat="47.54745" lon="-2.33753">
        <ele>35.599998</ele>
        <time>2012-01-04T10:35:45Z</time>
      </trkpt>
      <trkpt lat="47.54739" lon="-2.33746">
        <ele>35.700001</ele>
        <time>2012-01-04T10:35:47Z</time>
      </trkpt>
      <trkpt lat="47.54732" lon="-2.3374">
        <ele>36.099998</ele>
        <time>2012-01-04T10:35:49Z</time>
      </trkpt>
      <trkpt lat="47.54726" lon="-2.33734">
        <ele>36.599998</ele>
        <time>2012-01-04T10:35:51Z</time>
      </trkpt>
      <trkpt lat="47.5472" lon="-2.33729">
        <ele>36.700001</ele>
        <time>2012-01-04T10:35:53Z</time>
      </trkpt>
      <trkpt lat="47.54713" lon="-2.33725">
        <ele>36.200001</ele>
        <time>2012-01-04T10:35:55Z</time>
      </trkpt>
      <trkpt lat="47.54706" lon="-2.33722">
        <ele>35.5</ele>
        <time>2012-01-04T10:35:57Z</time>
      </trkpt>
      <trkpt lat="47.54698" lon="-2.33721">
        <ele>35.900002</ele>
        <time>2012-01-04T10:35:59Z</time>
      </trkpt>
      <trkpt lat="47.54689" lon="-2.33722">
        <ele>36.099998</ele>
        <time>2012-01-04T10:36:01Z</time>
      </trkpt>
      <trkpt lat="47.54681" lon="-2.33725">
        <ele>36.400002</ele>
        <time>2012-01-04T10:36:03Z</time>
      </trkpt>
      <trkpt lat="47.54674" lon="-2.33727">
        <ele>36.400002</ele>
        <time>2012-01-04T10:36:05Z</time>
      </trkpt>
      <trkpt lat="47.54667" lon="-2.33729">
        <ele>36.099998</ele>
        <time>2012-01-04T10:36:07Z</time>
      </trkpt>
      <trkpt lat="47.54659" lon="-2.3373">
        <ele>36.700001</ele>
        <time>2012-01-04T10:36:09Z</time>
      </trkpt>
      <trkpt lat="47.54652" lon="-2.33731">
        <ele>36.900002</ele>
        <time>2012-01-04T10:36:11Z</time>
      </trkpt>
      <trkpt lat="47.54646" lon="-2.33731">
        <ele>37.099998</ele>
        <time>2012-01-04T10:36:13Z</time>
      </trkpt>
      <trkpt lat="47.54638" lon="-2.3373">
        <ele>38</ele>
        <time>2012-01-04T10:36:16Z</time>
      </trkpt>
      <trkpt lat="47.5463" lon="-2.33727">
        <ele>38.5</ele>
        <time>2012-01-04T10:36:20Z</time>
      </trkpt>
      <trkpt lat="47.54624" lon="-2.33724">
        <ele>39.700001</ele>
        <time>2012-01-04T10:36:24Z</time>
      </trkpt>
      <trkpt lat="47.54616" lon="-2.33722">
        <ele>40.299999</ele>
        <time>2012-01-04T10:36:28Z</time>
      </trkpt>
      <trkpt lat="47.54613" lon="-2.33722">
        <ele>40.5</ele>
        <time>2012-01-04T10:36:29Z</time>
      </trkpt>
      <trkpt lat="47.54602" lon="-2.33718">
        <ele>41.799999</ele>
        <time>2012-01-04T10:36:34Z</time>
      </trkpt>
      <trkpt lat="47.54595" lon="-2.33714">
        <ele>43</ele>
        <time>2012-01-04T10:36:37Z</time>
      </trkpt>
      <trkpt lat="47.54588" lon="-2.3371">
        <ele>43.900002</ele>
        <time>2012-01-04T10:36:40Z</time>
      </trkpt>
      <trkpt lat="47.5458" lon="-2.33705">
        <ele>43.599998</ele>
        <time>2012-01-04T10:36:44Z</time>
      </trkpt>
      <trkpt lat="47.54572" lon="-2.33707">
        <ele>45</ele>
        <time>2012-01-04T10:36:52Z</time>
      </trkpt>
      <trkpt lat="47.54571" lon="-2.3372">
        <ele>46</ele>
        <time>2012-01-04T10:37:02Z</time>
      </trkpt>
      <trkpt lat="47.54571" lon="-2.33733">
        <ele>45.900002</ele>
        <time>2012-01-04T10:37:54Z</time>
      </trkpt>
      <trkpt lat="47.54571" lon="-2.33733">
        <ele>46</ele>
        <time>2012-01-04T10:37:55Z</time>
      </trkpt>
      <trkpt lat="47.54563" lon="-2.33742">
        <ele>47.599998</ele>
        <time>2012-01-04T10:39:56Z</time>
      </trkpt>
      <trkpt lat="47.54551" lon="-2.33758">
        <ele>49.099998</ele>
        <time>2012-01-04T10:40:17Z</time>
      </trkpt>
      <trkpt lat="47.54543" lon="-2.33762">
        <ele>50.700001</ele>
        <time>2012-01-04T10:40:27Z</time>
      </trkpt>
      <trkpt lat="47.54535" lon="-2.33764">
        <ele>50.200001</ele>
        <time>2012-01-04T10:40:34Z</time>
      </trkpt>
      <trkpt lat="47.54527" lon="-2.33766">
        <ele>50.5</ele>
        <time>2012-01-04T10:40:43Z</time>
      </trkpt>
      <trkpt lat="47.54519" lon="-2.33768">
        <ele>51.900002</ele>
        <time>2012-01-04T10:40:48Z</time>
      </trkpt>
      <trkpt lat="47.5451" lon="-2.33768">
        <ele>52.099998</ele>
        <time>2012-01-04T10:40:52Z</time>
      </trkpt>
      <trkpt lat="47.54503" lon="-2.33764">
        <ele>52.099998</ele>
        <time>2012-01-04T10:40:56Z</time>
      </trkpt>
      <trkpt lat="47.54501" lon="-2.33763">
        <ele>52.299999</ele>
        <time>2012-01-04T10:40:57Z</time>
      </trkpt>
      <trkpt lat="47.54489" lon="-2.33754">
        <ele>52.900002</ele>
        <time>2012-01-04T10:41:03Z</time>
      </trkpt>
      <trkpt lat="47.5448" lon="-2.33749">
        <ele>52.900002</ele>
        <time>2012-01-04T10:41:07Z</time>
      </trkpt>
      <trkpt lat="47.54474" lon="-2.33747">
        <ele>53.299999</ele>
        <time>2012-01-04T10:41:10Z</time>
      </trkpt>
      <trkpt lat="47.54467" lon="-2.33745">
        <ele>53.599998</ele>
        <time>2012-01-04T10:41:13Z</time>
      </trkpt>
      <trkpt lat="47.5446" lon="-2.33744">
        <ele>53.900002</ele>
        <time>2012-01-04T10:41:16Z</time>
      </trkpt>
      <trkpt lat="47.54451" lon="-2.33744">
        <ele>54.799999</ele>
        <time>2012-01-04T10:41:20Z</time>
      </trkpt>
      <trkpt lat="47.54443" lon="-2.33746">
        <ele>55.299999</ele>
        <time>2012-01-04T10:41:25Z</time>
      </trkpt>
      <trkpt lat="47.54435" lon="-2.33747">
        <ele>55</ele>
        <time>2012-01-04T10:41:29Z</time>
      </trkpt>
      <trkpt lat="47.54428" lon="-2.3375">
        <ele>55.900002</ele>
        <time>2012-01-04T10:41:33Z</time>
      </trkpt>
      <trkpt lat="47.5442" lon="-2.33754">
        <ele>57.200001</ele>
        <time>2012-01-04T10:41:37Z</time>
      </trkpt>
      <trkpt lat="47.54412" lon="-2.33756">
        <ele>58.099998</ele>
        <time>2012-01-04T10:41:41Z</time>
      </trkpt>
      <trkpt lat="47.54405" lon="-2.33756">
        <ele>58.5</ele>
        <time>2012-01-04T10:41:44Z</time>
      </trkpt>
      <trkpt lat="47.54396" lon="-2.33755">
        <ele>59.200001</ele>
        <time>2012-01-04T10:41:48Z</time>
      </trkpt>
      <trkpt lat="47.54389" lon="-2.33754">
        <ele>59.900002</ele>
        <time>2012-01-04T10:41:51Z</time>
      </trkpt>
      <trkpt lat="47.54382" lon="-2.33752">
        <ele>60.400002</ele>
        <time>2012-01-04T10:41:54Z</time>
      </trkpt>
      <trkpt lat="47.54375" lon="-2.33751">
        <ele>60.799999</ele>
        <time>2012-01-04T10:41:57Z</time>
      </trkpt>
      <trkpt lat="47.54373" lon="-2.3375">
        <ele>60.900002</ele>
        <time>2012-01-04T10:41:58Z</time>
      </trkpt>
      <trkpt lat="47.54358" lon="-2.33745">
        <ele>62.200001</ele>
        <time>2012-01-04T10:42:05Z</time>
      </trkpt>
      <trkpt lat="47.54349" lon="-2.33743">
        <ele>61.599998</ele>
        <time>2012-01-04T10:42:13Z</time>
      </trkpt>
      <trkpt lat="47.54343" lon="-2.33733">
        <ele>60.400002</ele>
        <time>2012-01-04T10:43:38Z</time>
      </trkpt>
      <trkpt lat="47.54343" lon="-2.33733">
        <ele>60.599998</ele>
        <time>2012-01-04T10:43:39Z</time>
      </trkpt>
      <trkpt lat="47.54327" lon="-2.33728">
        <ele>62.400002</ele>
        <time>2012-01-04T10:44:13Z</time>
      </trkpt>
      <trkpt lat="47.54319" lon="-2.33725">
        <ele>63.599998</ele>
        <time>2012-01-04T10:44:17Z</time>
      </trkpt>
      <trkpt lat="47.54312" lon="-2.3372">
        <ele>64.300003</ele>
        <time>2012-01-04T10:44:20Z</time>
      </trkpt>
      <trkpt lat="47.54306" lon="-2.33713">
        <ele>65</ele>
        <time>2012-01-04T10:44:23Z</time>
      </trkpt>
      <trkpt lat="47.54302" lon="-2.33703">
        <ele>65.099998</ele>
        <time>2012-01-04T10:44:26Z</time>
      </trkpt>
      <trkpt lat="47.54296" lon="-2.33697">
        <ele>64.900002</ele>
        <time>2012-01-04T10:44:29Z</time>
      </trkpt>
      <trkpt lat="47.54288" lon="-2.33695">
        <ele>65.199997</ele>
        <time>2012-01-04T10:44:32Z</time>
      </trkpt>
      <trkpt lat="47.5428" lon="-2.33694">
        <ele>66</ele>
        <time>2012-01-04T10:44:35Z</time>
      </trkpt>
      <trkpt lat="47.54272" lon="-2.33692">
        <ele>64.5</ele>
        <time>2012-01-04T10:44:38Z</time>
      </trkpt>
      <trkpt lat="47.54265" lon="-2.3369">
        <ele>64.599998</ele>
        <time>2012-01-04T10:44:41Z</time>
      </trkpt>
      <trkpt lat="47.54263" lon="-2.3369">
        <ele>65.099998</ele>
        <time>2012-01-04T10:44:42Z</time>
      </trkpt>
      <trkpt lat="47.54248" lon="-2.33687">
        <ele>65.300003</ele>
        <time>2012-01-04T10:44:49Z</time>
      </trkpt>
      <trkpt lat="47.5424" lon="-2.33685">
        <ele>66.099998</ele>
        <time>2012-01-04T10:44:53Z</time>
      </trkpt>
      <trkpt lat="47.54233" lon="-2.3368">
        <ele>67.199997</ele>
        <time>2012-01-04T10:44:57Z</time>
      </trkpt>
      <trkpt lat="47.54226" lon="-2.33677">
        <ele>65.900002</ele>
        <time>2012-01-04T10:45:01Z</time>
      </trkpt>
      <trkpt lat="47.54218" lon="-2.33673">
        <ele>66.900002</ele>
        <time>2012-01-04T10:45:05Z</time>
      </trkpt>
      <trkpt lat="47.5421" lon="-2.33671">
        <ele>66.800003</ele>
        <time>2012-01-04T10:45:09Z</time>
      </trkpt>
      <trkpt lat="47.54202" lon="-2.33668">
        <ele>67.5</ele>
        <time>2012-01-04T10:45:13Z</time>
      </trkpt>
      <trkpt lat="47.54195" lon="-2.33664">
        <ele>68.099998</ele>
        <time>2012-01-04T10:45:17Z</time>
      </trkpt>
      <trkpt lat="47.54188" lon="-2.33661">
        <ele>68.099998</ele>
        <time>2012-01-04T10:45:21Z</time>
      </trkpt>
      <trkpt lat="47.54181" lon="-2.33658">
        <ele>68.800003</ele>
        <time>2012-01-04T10:45:25Z</time>
      </trkpt>
      <trkpt lat="47.54172" lon="-2.33655">
        <ele>69.400002</ele>
        <time>2012-01-04T10:45:29Z</time>
      </trkpt>
      <trkpt lat="47.54164" lon="-2.33652">
        <ele>70.099998</ele>
        <time>2012-01-04T10:45:33Z</time>
      </trkpt>
      <trkpt lat="47.54157" lon="-2.33649">
        <ele>70.599998</ele>
        <time>2012-01-04T10:45:37Z</time>
      </trkpt>
      <trkpt lat="47.5415" lon="-2.33646">
        <ele>70.599998</ele>
        <time>2012-01-04T10:45:41Z</time>
      </trkpt>
      <trkpt lat="47.54142" lon="-2.33642">
        <ele>71.5</ele>
        <time>2012-01-04T10:45:45Z</time>
      </trkpt>
      <trkpt lat="47.54141" lon="-2.3364">
        <ele>71.300003</ele>
        <time>2012-01-04T10:45:46Z</time>
      </trkpt>
      <trkpt lat="47.54128" lon="-2.33628">
        <ele>71.599998</ele>
        <time>2012-01-04T10:45:56Z</time>
      </trkpt>
      <trkpt lat="47.54122" lon="-2.33619">
        <ele>72.099998</ele>
        <time>2012-01-04T10:46:00Z</time>
      </trkpt>
      <trkpt lat="47.54117" lon="-2.3361">
        <ele>71.400002</ele>
        <time>2012-01-04T10:46:04Z</time>
      </trkpt>
      <trkpt lat="47.54112" lon="-2.336">
        <ele>72.400002</ele>
        <time>2012-01-04T10:46:08Z</time>
      </trkpt>
      <trkpt lat="47.54106" lon="-2.3359">
        <ele>71.400002</ele>
        <time>2012-01-04T10:46:12Z</time>
      </trkpt>
      <trkpt lat="47.54102" lon="-2.3358">
        <ele>70.800003</ele>
        <time>2012-01-04T10:46:16Z</time>
      </trkpt>
      <trkpt lat="47.54097" lon="-2.33569">
        <ele>71.400002</ele>
        <time>2012-01-04T10:46:20Z</time>
      </trkpt>
      <trkpt lat="47.54092" lon="-2.3356">
        <ele>71.900002</ele>
        <time>2012-01-04T10:46:23Z</time>
      </trkpt>
      <trkpt lat="47.54087" lon="-2.33551">
        <ele>71.599998</ele>
        <time>2012-01-04T10:46:26Z</time>
      </trkpt>
      <trkpt lat="47.54084" lon="-2.33543">
        <ele>71.199997</ele>
        <time>2012-01-04T10:46:28Z</time>
      </trkpt>
      <trkpt lat="47.54081" lon="-2.33535">
        <ele>71.300003</ele>
        <time>2012-01-04T10:46:30Z</time>
      </trkpt>
      <trkpt lat="47.54078" lon="-2.33527">
        <ele>71.5</ele>
        <time>2012-01-04T10:46:32Z</time>
      </trkpt>
      <trkpt lat="47.54075" lon="-2.33519">
        <ele>71.400002</ele>
        <time>2012-01-04T10:46:34Z</time>
      </trkpt>
      <trkpt lat="47.54072" lon="-2.3351">
        <ele>71.199997</ele>
        <time>2012-01-04T10:46:36Z</time>
      </trkpt>
      <trkpt lat="47.54069" lon="-2.33502">
        <ele>70.900002</ele>
        <time>2012-01-04T10:46:38Z</time>
      </trkpt>
      <trkpt lat="47.54066" lon="-2.33495">
        <ele>70.5</ele>
        <time>2012-01-04T10:46:40Z</time>
      </trkpt>
      <trkpt lat="47.54062" lon="-2.33483">
        <ele>70.400002</ele>
        <time>2012-01-04T10:46:43Z</time>
      </trkpt>
      <trkpt lat="47.54059" lon="-2.3347">
        <ele>70.099998</ele>
        <time>2012-01-04T10:46:46Z</time>
      </trkpt>
      <trkpt lat="47.54056" lon="-2.33459">
        <ele>69.800003</ele>
        <time>2012-01-04T10:46:49Z</time>
      </trkpt>
      <trkpt lat="47.54055" lon="-2.33455">
        <ele>69.900002</ele>
        <time>2012-01-04T10:46:50Z</time>
      </trkpt>
      <trkpt lat="47.54048" lon="-2.33439">
        <ele>70.199997</ele>
        <time>2012-01-04T10:46:55Z</time>
      </trkpt>
      <trkpt lat="47.54043" lon="-2.33431">
        <ele>69.800003</ele>
        <time>2012-01-04T10:46:58Z</time>
      </trkpt>
      <trkpt lat="47.54039" lon="-2.33422">
        <ele>69.199997</ele>
        <time>2012-01-04T10:47:01Z</time>
      </trkpt>
      <trkpt lat="47.54034" lon="-2.33412">
        <ele>69.900002</ele>
        <time>2012-01-04T10:47:04Z</time>
      </trkpt>
      <trkpt lat="47.54029" lon="-2.33404">
        <ele>69.300003</ele>
        <time>2012-01-04T10:47:07Z</time>
      </trkpt>
      <trkpt lat="47.54023" lon="-2.33394">
        <ele>69.099998</ele>
        <time>2012-01-04T10:47:10Z</time>
      </trkpt>
      <trkpt lat="47.54016" lon="-2.33385">
        <ele>69.599998</ele>
        <time>2012-01-04T10:47:13Z</time>
      </trkpt>
      <trkpt lat="47.5401" lon="-2.33376">
        <ele>69.5</ele>
        <time>2012-01-04T10:47:16Z</time>
      </trkpt>
      <trkpt lat="47.54004" lon="-2.3337">
        <ele>69.599998</ele>
        <time>2012-01-04T10:47:19Z</time>
      </trkpt>
      <trkpt lat="47.54" lon="-2.33363">
        <ele>69.699997</ele>
        <time>2012-01-04T10:47:22Z</time>
      </trkpt>
      <trkpt lat="47.53994" lon="-2.33355">
        <ele>69.800003</ele>
        <time>2012-01-04T10:47:25Z</time>
      </trkpt>
      <trkpt lat="47.53989" lon="-2.33347">
        <ele>70.099998</ele>
        <time>2012-01-04T10:47:28Z</time>
      </trkpt>
      <trkpt lat="47.53984" lon="-2.33342">
        <ele>70.599998</ele>
        <time>2012-01-04T10:47:31Z</time>
      </trkpt>
      <trkpt lat="47.53976" lon="-2.33339">
        <ele>70.599998</ele>
        <time>2012-01-04T10:47:34Z</time>
      </trkpt>
      <trkpt lat="47.53969" lon="-2.33337">
        <ele>70</ele>
        <time>2012-01-04T10:47:37Z</time>
      </trkpt>
      <trkpt lat="47.53961" lon="-2.33338">
        <ele>69.599998</ele>
        <time>2012-01-04T10:47:40Z</time>
      </trkpt>
      <trkpt lat="47.53954" lon="-2.3334">
        <ele>69.5</ele>
        <time>2012-01-04T10:47:43Z</time>
      </trkpt>
      <trkpt lat="47.53947" lon="-2.33342">
        <ele>70</ele>
        <time>2012-01-04T10:47:46Z</time>
      </trkpt>
      <trkpt lat="47.53939" lon="-2.33343">
        <ele>70.099998</ele>
        <time>2012-01-04T10:47:49Z</time>
      </trkpt>
      <trkpt lat="47.53932" lon="-2.33345">
        <ele>70.199997</ele>
        <time>2012-01-04T10:47:52Z</time>
      </trkpt>
      <trkpt lat="47.53929" lon="-2.33345">
        <ele>70.300003</ele>
        <time>2012-01-04T10:47:53Z</time>
      </trkpt>
      <trkpt lat="47.53917" lon="-2.33347">
        <ele>71.300003</ele>
        <time>2012-01-04T10:47:58Z</time>
      </trkpt>
      <trkpt lat="47.53909" lon="-2.33348">
        <ele>71.900002</ele>
        <time>2012-01-04T10:48:01Z</time>
      </trkpt>
      <trkpt lat="47.53902" lon="-2.3335">
        <ele>71.900002</ele>
        <time>2012-01-04T10:48:04Z</time>
      </trkpt>
      <trkpt lat="47.53894" lon="-2.33351">
        <ele>72.699997</ele>
        <time>2012-01-04T10:48:07Z</time>
      </trkpt>
      <trkpt lat="47.53887" lon="-2.33353">
        <ele>73</ele>
        <time>2012-01-04T10:48:10Z</time>
      </trkpt>
      <trkpt lat="47.53879" lon="-2.33354">
        <ele>73.699997</ele>
        <time>2012-01-04T10:48:13Z</time>
      </trkpt>
      <trkpt lat="47.53872" lon="-2.33356">
        <ele>74.199997</ele>
        <time>2012-01-04T10:48:16Z</time>
      </trkpt>
      <trkpt lat="47.53864" lon="-2.33358">
        <ele>74.800003</ele>
        <time>2012-01-04T10:48:19Z</time>
      </trkpt>
      <trkpt lat="47.53857" lon="-2.3336">
        <ele>75.400002</ele>
        <time>2012-01-04T10:48:22Z</time>
      </trkpt>
      <trkpt lat="47.53849" lon="-2.33362">
        <ele>75.199997</ele>
        <time>2012-01-04T10:48:25Z</time>
      </trkpt>
      <trkpt lat="47.53842" lon="-2.33362">
        <ele>75.599998</ele>
        <time>2012-01-04T10:48:28Z</time>
      </trkpt>
      <trkpt lat="47.53834" lon="-2.33361">
        <ele>75.800003</ele>
        <time>2012-01-04T10:48:31Z</time>
      </trkpt>
      <trkpt lat="47.53826" lon="-2.33359">
        <ele>75.900002</ele>
        <time>2012-01-04T10:48:34Z</time>
      </trkpt>
      <trkpt lat="47.5382" lon="-2.33357">
        <ele>76.199997</ele>
        <time>2012-01-04T10:48:36Z</time>
      </trkpt>
      <trkpt lat="47.53814" lon="-2.33354">
        <ele>76.199997</ele>
        <time>2012-01-04T10:48:38Z</time>
      </trkpt>
      <trkpt lat="47.53807" lon="-2.33351">
        <ele>76.599998</ele>
        <time>2012-01-04T10:48:40Z</time>
      </trkpt>
      <trkpt lat="47.53799" lon="-2.33348">
        <ele>77.099998</ele>
        <time>2012-01-04T10:48:42Z</time>
      </trkpt>
      <trkpt lat="47.53794" lon="-2.33346">
        <ele>77.300003</ele>
        <time>2012-01-04T10:48:43Z</time>
      </trkpt>
      <trkpt lat="47.5379" lon="-2.33344">
        <ele>77.400002</ele>
        <time>2012-01-04T10:48:44Z</time>
      </trkpt>
      <trkpt lat="47.53785" lon="-2.33342">
        <ele>77.400002</ele>
        <time>2012-01-04T10:48:45Z</time>
      </trkpt>
      <trkpt lat="47.5378" lon="-2.3334">
        <ele>77.199997</ele>
        <time>2012-01-04T10:48:46Z</time>
      </trkpt>
      <trkpt lat="47.53775" lon="-2.33338">
        <ele>77</ele>
        <time>2012-01-04T10:48:47Z</time>
      </trkpt>
      <trkpt lat="47.5377" lon="-2.33337">
        <ele>76.900002</ele>
        <time>2012-01-04T10:48:48Z</time>
      </trkpt>
      <trkpt lat="47.53764" lon="-2.33335">
        <ele>76.800003</ele>
        <time>2012-01-04T10:48:49Z</time>
      </trkpt>
      <trkpt lat="47.53758" lon="-2.33333">
        <ele>76.300003</ele>
        <time>2012-01-04T10:48:50Z</time>
      </trkpt>
      <trkpt lat="47.53752" lon="-2.33332">
        <ele>75.900002</ele>
        <time>2012-01-04T10:48:51Z</time>
      </trkpt>
      <trkpt lat="47.53746" lon="-2.3333">
        <ele>75.5</ele>
        <time>2012-01-04T10:48:52Z</time>
      </trkpt>
      <trkpt lat="47.53739" lon="-2.33329">
        <ele>75.099998</ele>
        <time>2012-01-04T10:48:53Z</time>
      </trkpt>
      <trkpt lat="47.53733" lon="-2.33328">
        <ele>74.800003</ele>
        <time>2012-01-04T10:48:54Z</time>
      </trkpt>
      <trkpt lat="47.53726" lon="-2.33327">
        <ele>74.599998</ele>
        <time>2012-01-04T10:48:55Z</time>
      </trkpt>
      <trkpt lat="47.5372" lon="-2.33325">
        <ele>73.800003</ele>
        <time>2012-01-04T10:48:56Z</time>
      </trkpt>
      <trkpt lat="47.53713" lon="-2.33324">
        <ele>73.199997</ele>
        <time>2012-01-04T10:48:57Z</time>
      </trkpt>
      <trkpt lat="47.53707" lon="-2.33323">
        <ele>72.699997</ele>
        <time>2012-01-04T10:48:58Z</time>
      </trkpt>
      <trkpt lat="47.537" lon="-2.33322">
        <ele>72.699997</ele>
        <time>2012-01-04T10:48:59Z</time>
      </trkpt>
      <trkpt lat="47.53694" lon="-2.33321">
        <ele>72.599998</ele>
        <time>2012-01-04T10:49:00Z</time>
      </trkpt>
      <trkpt lat="47.53688" lon="-2.3332">
        <ele>72.599998</ele>
        <time>2012-01-04T10:49:01Z</time>
      </trkpt>
      <trkpt lat="47.53683" lon="-2.33318">
        <ele>72</ele>
        <time>2012-01-04T10:49:02Z</time>
      </trkpt>
      <trkpt lat="47.53679" lon="-2.33315">
        <ele>71.599998</ele>
        <time>2012-01-04T10:49:03Z</time>
      </trkpt>
      <trkpt lat="47.53675" lon="-2.33311">
        <ele>71.199997</ele>
        <time>2012-01-04T10:49:04Z</time>
      </trkpt>
      <trkpt lat="47.53672" lon="-2.33305">
        <ele>71</ele>
        <time>2012-01-04T10:49:05Z</time>
      </trkpt>
      <trkpt lat="47.5367" lon="-2.33299">
        <ele>70.800003</ele>
        <time>2012-01-04T10:49:06Z</time>
      </trkpt>
      <trkpt lat="47.53669" lon="-2.33292">
        <ele>70.699997</ele>
        <time>2012-01-04T10:49:07Z</time>
      </trkpt>
      <trkpt lat="47.53669" lon="-2.33284">
        <ele>70.599998</ele>
        <time>2012-01-04T10:49:08Z</time>
      </trkpt>
      <trkpt lat="47.53669" lon="-2.33277">
        <ele>70.5</ele>
        <time>2012-01-04T10:49:09Z</time>
      </trkpt>
      <trkpt lat="47.5367" lon="-2.33269">
        <ele>70.400002</ele>
        <time>2012-01-04T10:49:10Z</time>
      </trkpt>
      <trkpt lat="47.5367" lon="-2.33261">
        <ele>70.300003</ele>
        <time>2012-01-04T10:49:11Z</time>
      </trkpt>
      <trkpt lat="47.53671" lon="-2.33253">
        <ele>70.199997</ele>
        <time>2012-01-04T10:49:12Z</time>
      </trkpt>
      <trkpt lat="47.53671" lon="-2.33245">
        <ele>70.099998</ele>
        <time>2012-01-04T10:49:13Z</time>
      </trkpt>
      <trkpt lat="47.53672" lon="-2.33238">
        <ele>70</ele>
        <time>2012-01-04T10:49:14Z</time>
      </trkpt>
      <trkpt lat="47.53673" lon="-2.3323">
        <ele>70.099998</ele>
        <time>2012-01-04T10:49:15Z</time>
      </trkpt>
      <trkpt lat="47.53673" lon="-2.33222">
        <ele>70.199997</ele>
        <time>2012-01-04T10:49:16Z</time>
      </trkpt>
      <trkpt lat="47.53674" lon="-2.33214">
        <ele>70.300003</ele>
        <time>2012-01-04T10:49:17Z</time>
      </trkpt>
      <trkpt lat="47.53674" lon="-2.33206">
        <ele>70.5</ele>
        <time>2012-01-04T10:49:18Z</time>
      </trkpt>
      <trkpt lat="47.53674" lon="-2.33199">
        <ele>70.699997</ele>
        <time>2012-01-04T10:49:19Z</time>
      </trkpt>
      <trkpt lat="47.53674" lon="-2.33191">
        <ele>70.800003</ele>
        <time>2012-01-04T10:49:20Z</time>
      </trkpt>
      <trkpt lat="47.53674" lon="-2.33184">
        <ele>70.900002</ele>
        <time>2012-01-04T10:49:21Z</time>
      </trkpt>
      <trkpt lat="47.53674" lon="-2.33176">
        <ele>71</ele>
        <time>2012-01-04T10:49:22Z</time>
      </trkpt>
      <trkpt lat="47.53674" lon="-2.33169">
        <ele>71.099998</ele>
        <time>2012-01-04T10:49:23Z</time>
      </trkpt>
      <trkpt lat="47.53673" lon="-2.33161">
        <ele>71.099998</ele>
        <time>2012-01-04T10:49:24Z</time>
      </trkpt>
      <trkpt lat="47.53673" lon="-2.33153">
        <ele>71.400002</ele>
        <time>2012-01-04T10:49:25Z</time>
      </trkpt>
      <trkpt lat="47.53672" lon="-2.33146">
        <ele>71.599998</ele>
        <time>2012-01-04T10:49:26Z</time>
      </trkpt>
      <trkpt lat="47.53671" lon="-2.33138">
        <ele>71.699997</ele>
        <time>2012-01-04T10:49:27Z</time>
      </trkpt>
      <trkpt lat="47.53669" lon="-2.33131">
        <ele>71.199997</ele>
        <time>2012-01-04T10:49:28Z</time>
      </trkpt>
      <trkpt lat="47.53668" lon="-2.33124">
        <ele>70.800003</ele>
        <time>2012-01-04T10:49:29Z</time>
      </trkpt>
      <trkpt lat="47.53667" lon="-2.33116">
        <ele>70.5</ele>
        <time>2012-01-04T10:49:30Z</time>
      </trkpt>
      <trkpt lat="47.53666" lon="-2.33109">
        <ele>70.800003</ele>
        <time>2012-01-04T10:49:31Z</time>
      </trkpt>
      <trkpt lat="47.53665" lon="-2.33102">
        <ele>71</ele>
        <time>2012-01-04T10:49:32Z</time>
      </trkpt>
      <trkpt lat="47.53665" lon="-2.33094">
        <ele>71.199997</ele>
        <time>2012-01-04T10:49:33Z</time>
      </trkpt>
      <trkpt lat="47.53663" lon="-2.33088">
        <ele>71.099998</ele>
        <time>2012-01-04T10:49:34Z</time>
      </trkpt>
      <trkpt lat="47.53662" lon="-2.33081">
        <ele>71</ele>
        <time>2012-01-04T10:49:35Z</time>
      </trkpt>
      <trkpt lat="47.53661" lon="-2.33074">
        <ele>70.900002</ele>
        <time>2012-01-04T10:49:36Z</time>
      </trkpt>
      <trkpt lat="47.53661" lon="-2.33067">
        <ele>70.900002</ele>
        <time>2012-01-04T10:49:37Z</time>
      </trkpt>
      <trkpt lat="47.5366" lon="-2.3306">
        <ele>70.800003</ele>
        <time>2012-01-04T10:49:38Z</time>
      </trkpt>
      <trkpt lat="47.53659" lon="-2.33053">
        <ele>70.800003</ele>
        <time>2012-01-04T10:49:39Z</time>
      </trkpt>
      <trkpt lat="47.53659" lon="-2.33046">
        <ele>70.699997</ele>
        <time>2012-01-04T10:49:40Z</time>
      </trkpt>
      <trkpt lat="47.53664" lon="-2.33035">
        <ele>70.5</ele>
        <time>2012-01-04T10:49:42Z</time>
      </trkpt>
      <trkpt lat="47.53671" lon="-2.33029">
        <ele>70.5</ele>
        <time>2012-01-04T10:49:44Z</time>
      </trkpt>
      <trkpt lat="47.53678" lon="-2.33024">
        <ele>70.699997</ele>
        <time>2012-01-04T10:49:46Z</time>
      </trkpt>
      <trkpt lat="47.53684" lon="-2.3302">
        <ele>71.099998</ele>
        <time>2012-01-04T10:49:48Z</time>
      </trkpt>
      <trkpt lat="47.5369" lon="-2.33016">
        <ele>71.199997</ele>
        <time>2012-01-04T10:49:50Z</time>
      </trkpt>
      <trkpt lat="47.53697" lon="-2.33012">
        <ele>71.300003</ele>
        <time>2012-01-04T10:49:52Z</time>
      </trkpt>
      <trkpt lat="47.53702" lon="-2.33008">
        <ele>71.400002</ele>
        <time>2012-01-04T10:49:54Z</time>
      </trkpt>
      <trkpt lat="47.53705" lon="-2.33005">
        <ele>71.5</ele>
        <time>2012-01-04T10:49:55Z</time>
      </trkpt>
      <trkpt lat="47.53716" lon="-2.32993">
        <ele>73.099998</ele>
        <time>2012-01-04T10:50:00Z</time>
      </trkpt>
      <trkpt lat="47.53721" lon="-2.32984">
        <ele>73.300003</ele>
        <time>2012-01-04T10:50:03Z</time>
      </trkpt>
      <trkpt lat="47.53722" lon="-2.32971">
        <ele>73.099998</ele>
        <time>2012-01-04T10:50:06Z</time>
      </trkpt>
      <trkpt lat="47.53721" lon="-2.32962">
        <ele>72.800003</ele>
        <time>2012-01-04T10:50:08Z</time>
      </trkpt>
      <trkpt lat="47.53719" lon="-2.32949">
        <ele>72.599998</ele>
        <time>2012-01-04T10:50:11Z</time>
      </trkpt>
      <trkpt lat="47.53718" lon="-2.32941">
        <ele>72.800003</ele>
        <time>2012-01-04T10:50:13Z</time>
      </trkpt>
      <trkpt lat="47.53718" lon="-2.32931">
        <ele>72.5</ele>
        <time>2012-01-04T10:50:15Z</time>
      </trkpt>
      <trkpt lat="47.53721" lon="-2.32923">
        <ele>72.099998</ele>
        <time>2012-01-04T10:50:17Z</time>
      </trkpt>
      <trkpt lat="47.53726" lon="-2.32917">
        <ele>71.699997</ele>
        <time>2012-01-04T10:50:19Z</time>
      </trkpt>
      <trkpt lat="47.53733" lon="-2.32911">
        <ele>71.699997</ele>
        <time>2012-01-04T10:50:22Z</time>
      </trkpt>
      <trkpt lat="47.53738" lon="-2.32905">
        <ele>72.099998</ele>
        <time>2012-01-04T10:50:24Z</time>
      </trkpt>
      <trkpt lat="47.53743" lon="-2.329">
        <ele>72.400002</ele>
        <time>2012-01-04T10:50:26Z</time>
      </trkpt>
      <trkpt lat="47.53748" lon="-2.32893">
        <ele>72.300003</ele>
        <time>2012-01-04T10:50:28Z</time>
      </trkpt>
      <trkpt lat="47.53751" lon="-2.32885">
        <ele>72</ele>
        <time>2012-01-04T10:50:30Z</time>
      </trkpt>
      <trkpt lat="47.53755" lon="-2.32876">
        <ele>72.300003</ele>
        <time>2012-01-04T10:50:32Z</time>
      </trkpt>
      <trkpt lat="47.53758" lon="-2.32868">
        <ele>72.800003</ele>
        <time>2012-01-04T10:50:34Z</time>
      </trkpt>
      <trkpt lat="47.53762" lon="-2.3286">
        <ele>73.400002</ele>
        <time>2012-01-04T10:50:36Z</time>
      </trkpt>
      <trkpt lat="47.53767" lon="-2.32852">
        <ele>73.699997</ele>
        <time>2012-01-04T10:50:38Z</time>
      </trkpt>
      <trkpt lat="47.53771" lon="-2.32844">
        <ele>73.800003</ele>
        <time>2012-01-04T10:50:40Z</time>
      </trkpt>
      <trkpt lat="47.53774" lon="-2.32836">
        <ele>73.599998</ele>
        <time>2012-01-04T10:50:42Z</time>
      </trkpt>
      <trkpt lat="47.53777" lon="-2.32828">
        <ele>73.599998</ele>
        <time>2012-01-04T10:50:44Z</time>
      </trkpt>
      <trkpt lat="47.53778" lon="-2.32819">
        <ele>73.699997</ele>
        <time>2012-01-04T10:50:46Z</time>
      </trkpt>
      <trkpt lat="47.53779" lon="-2.32809">
        <ele>73.099998</ele>
        <time>2012-01-04T10:50:48Z</time>
      </trkpt>
      <trkpt lat="47.53783" lon="-2.32797">
        <ele>73.099998</ele>
        <time>2012-01-04T10:51:19Z</time>
      </trkpt>
      <trkpt lat="47.53783" lon="-2.32796">
        <ele>73.099998</ele>
        <time>2012-01-04T10:51:20Z</time>
      </trkpt>
      <trkpt lat="47.53781" lon="-2.32783">
        <ele>74.5</ele>
        <time>2012-01-04T10:53:35Z</time>
      </trkpt>
      <trkpt lat="47.5378" lon="-2.3276">
        <ele>73.400002</ele>
        <time>2012-01-04T10:53:42Z</time>
      </trkpt>
      <trkpt lat="47.5378" lon="-2.32749">
        <ele>73.400002</ele>
        <time>2012-01-04T10:53:45Z</time>
      </trkpt>
      <trkpt lat="47.53776" lon="-2.32738">
        <ele>74.300003</ele>
        <time>2012-01-04T10:55:22Z</time>
      </trkpt>
      <trkpt lat="47.53774" lon="-2.32738">
        <ele>74.400002</ele>
        <time>2012-01-04T10:55:23Z</time>
      </trkpt>
      <trkpt lat="47.53763" lon="-2.32729">
        <ele>74.300003</ele>
        <time>2012-01-04T10:55:27Z</time>
      </trkpt>
      <trkpt lat="47.53757" lon="-2.32721">
        <ele>74.099998</ele>
        <time>2012-01-04T10:55:29Z</time>
      </trkpt>
      <trkpt lat="47.53751" lon="-2.32713">
        <ele>73.099998</ele>
        <time>2012-01-04T10:55:31Z</time>
      </trkpt>
      <trkpt lat="47.53748" lon="-2.32708">
        <ele>72.800003</ele>
        <time>2012-01-04T10:55:32Z</time>
      </trkpt>
      <trkpt lat="47.53744" lon="-2.32703">
        <ele>72.800003</ele>
        <time>2012-01-04T10:55:33Z</time>
      </trkpt>
      <trkpt lat="47.53741" lon="-2.32698">
        <ele>72.800003</ele>
        <time>2012-01-04T10:55:34Z</time>
      </trkpt>
      <trkpt lat="47.53737" lon="-2.32693">
        <ele>72.699997</ele>
        <time>2012-01-04T10:55:35Z</time>
      </trkpt>
      <trkpt lat="47.53733" lon="-2.32688">
        <ele>72.400002</ele>
        <time>2012-01-04T10:55:36Z</time>
      </trkpt>
      <trkpt lat="47.53729" lon="-2.32683">
        <ele>72.099998</ele>
        <time>2012-01-04T10:55:37Z</time>
      </trkpt>
      <trkpt lat="47.53726" lon="-2.32678">
        <ele>71.900002</ele>
        <time>2012-01-04T10:55:38Z</time>
      </trkpt>
      <trkpt lat="47.53722" lon="-2.32672">
        <ele>71.800003</ele>
        <time>2012-01-04T10:55:39Z</time>
      </trkpt>
      <trkpt lat="47.53718" lon="-2.32667">
        <ele>71.699997</ele>
        <time>2012-01-04T10:55:40Z</time>
      </trkpt>
      <trkpt lat="47.53714" lon="-2.32661">
        <ele>71.599998</ele>
        <time>2012-01-04T10:55:41Z</time>
      </trkpt>
      <trkpt lat="47.53711" lon="-2.32656">
        <ele>71.599998</ele>
        <time>2012-01-04T10:55:42Z</time>
      </trkpt>
      <trkpt lat="47.53707" lon="-2.32651">
        <ele>71.599998</ele>
        <time>2012-01-04T10:55:43Z</time>
      </trkpt>
      <trkpt lat="47.53704" lon="-2.32646">
        <ele>71.599998</ele>
        <time>2012-01-04T10:55:44Z</time>
      </trkpt>
      <trkpt lat="47.53698" lon="-2.32638">
        <ele>71.099998</ele>
        <time>2012-01-04T10:55:46Z</time>
      </trkpt>
      <trkpt lat="47.53693" lon="-2.32631">
        <ele>70.599998</ele>
        <time>2012-01-04T10:55:48Z</time>
      </trkpt>
      <trkpt lat="47.53687" lon="-2.32625">
        <ele>71.099998</ele>
        <time>2012-01-04T10:55:50Z</time>
      </trkpt>
      <trkpt lat="47.53682" lon="-2.32618">
        <ele>70.800003</ele>
        <time>2012-01-04T10:55:52Z</time>
      </trkpt>
      <trkpt lat="47.53677" lon="-2.32611">
        <ele>70.099998</ele>
        <time>2012-01-04T10:55:54Z</time>
      </trkpt>
      <trkpt lat="47.53671" lon="-2.32603">
        <ele>69.699997</ele>
        <time>2012-01-04T10:55:56Z</time>
      </trkpt>
      <trkpt lat="47.53665" lon="-2.32595">
        <ele>69.5</ele>
        <time>2012-01-04T10:55:58Z</time>
      </trkpt>
      <trkpt lat="47.5366" lon="-2.32587">
        <ele>70.099998</ele>
        <time>2012-01-04T10:56:00Z</time>
      </trkpt>
      <trkpt lat="47.53654" lon="-2.32579">
        <ele>70</ele>
        <time>2012-01-04T10:56:02Z</time>
      </trkpt>
      <trkpt lat="47.53649" lon="-2.3257">
        <ele>69.699997</ele>
        <time>2012-01-04T10:56:04Z</time>
      </trkpt>
      <trkpt lat="47.53644" lon="-2.32562">
        <ele>68.900002</ele>
        <time>2012-01-04T10:56:06Z</time>
      </trkpt>
      <trkpt lat="47.53638" lon="-2.32554">
        <ele>68.699997</ele>
        <time>2012-01-04T10:56:08Z</time>
      </trkpt>
      <trkpt lat="47.53634" lon="-2.32546">
        <ele>68.800003</ele>
        <time>2012-01-04T10:56:10Z</time>
      </trkpt>
      <trkpt lat="47.5363" lon="-2.32539">
        <ele>68</ele>
        <time>2012-01-04T10:56:12Z</time>
      </trkpt>
      <trkpt lat="47.53624" lon="-2.32532">
        <ele>67.099998</ele>
        <time>2012-01-04T10:56:15Z</time>
      </trkpt>
      <trkpt lat="47.53617" lon="-2.32526">
        <ele>67.5</ele>
        <time>2012-01-04T10:56:19Z</time>
      </trkpt>
      <trkpt lat="47.5361" lon="-2.32523">
        <ele>67.699997</ele>
        <time>2012-01-04T10:56:22Z</time>
      </trkpt>
      <trkpt lat="47.53604" lon="-2.32519">
        <ele>67.699997</ele>
        <time>2012-01-04T10:56:24Z</time>
      </trkpt>
      <trkpt lat="47.53602" lon="-2.32516">
        <ele>67.800003</ele>
        <time>2012-01-04T10:56:25Z</time>
      </trkpt>
      <trkpt lat="47.53592" lon="-2.32505">
        <ele>68</ele>
        <time>2012-01-04T10:56:28Z</time>
      </trkpt>
      <trkpt lat="47.53588" lon="-2.32502">
        <ele>68</ele>
        <time>2012-01-04T10:56:29Z</time>
      </trkpt>
      <trkpt lat="47.53584" lon="-2.32496">
        <ele>67.800003</ele>
        <time>2012-01-04T10:56:30Z</time>
      </trkpt>
      <trkpt lat="47.5358" lon="-2.32491">
        <ele>67.599998</ele>
        <time>2012-01-04T10:56:31Z</time>
      </trkpt>
      <trkpt lat="47.53576" lon="-2.32485">
        <ele>67.400002</ele>
        <time>2012-01-04T10:56:32Z</time>
      </trkpt>
      <trkpt lat="47.53572" lon="-2.3248">
        <ele>67.300003</ele>
        <time>2012-01-04T10:56:33Z</time>
      </trkpt>
      <trkpt lat="47.53569" lon="-2.32474">
        <ele>67.300003</ele>
        <time>2012-01-04T10:56:34Z</time>
      </trkpt>
      <trkpt lat="47.53566" lon="-2.32469">
        <ele>67.400002</ele>
        <time>2012-01-04T10:56:35Z</time>
      </trkpt>
      <trkpt lat="47.53562" lon="-2.32463">
        <ele>67.400002</ele>
        <time>2012-01-04T10:56:36Z</time>
      </trkpt>
      <trkpt lat="47.53559" lon="-2.32458">
        <ele>67.400002</ele>
        <time>2012-01-04T10:56:37Z</time>
      </trkpt>
      <trkpt lat="47.53556" lon="-2.32452">
        <ele>67.5</ele>
        <time>2012-01-04T10:56:38Z</time>
      </trkpt>
      <trkpt lat="47.53553" lon="-2.32447">
        <ele>67.5</ele>
        <time>2012-01-04T10:56:39Z</time>
      </trkpt>
      <trkpt lat="47.5355" lon="-2.32441">
        <ele>67.400002</ele>
        <time>2012-01-04T10:56:40Z</time>
      </trkpt>
      <trkpt lat="47.53547" lon="-2.32435">
        <ele>67.300003</ele>
        <time>2012-01-04T10:56:41Z</time>
      </trkpt>
      <trkpt lat="47.53543" lon="-2.3243">
        <ele>67.199997</ele>
        <time>2012-01-04T10:56:42Z</time>
      </trkpt>
      <trkpt lat="47.5354" lon="-2.32424">
        <ele>67</ele>
        <time>2012-01-04T10:56:43Z</time>
      </trkpt>
      <trkpt lat="47.53536" lon="-2.32419">
        <ele>66.900002</ele>
        <time>2012-01-04T10:56:44Z</time>
      </trkpt>
      <trkpt lat="47.53533" lon="-2.32414">
        <ele>66.800003</ele>
        <time>2012-01-04T10:56:45Z</time>
      </trkpt>
      <trkpt lat="47.53529" lon="-2.32408">
        <ele>67</ele>
        <time>2012-01-04T10:56:46Z</time>
      </trkpt>
      <trkpt lat="47.53525" lon="-2.32403">
        <ele>67.199997</ele>
        <time>2012-01-04T10:56:47Z</time>
      </trkpt>
      <trkpt lat="47.53521" lon="-2.32397">
        <ele>67.400002</ele>
        <time>2012-01-04T10:56:48Z</time>
      </trkpt>
      <trkpt lat="47.53517" lon="-2.32391">
        <ele>67.5</ele>
        <time>2012-01-04T10:56:49Z</time>
      </trkpt>
      <trkpt lat="47.53512" lon="-2.32385">
        <ele>67.199997</ele>
        <time>2012-01-04T10:56:50Z</time>
      </trkpt>
      <trkpt lat="47.53508" lon="-2.32379">
        <ele>67</ele>
        <time>2012-01-04T10:56:51Z</time>
      </trkpt>
      <trkpt lat="47.53504" lon="-2.32373">
        <ele>66.800003</ele>
        <time>2012-01-04T10:56:52Z</time>
      </trkpt>
      <trkpt lat="47.53499" lon="-2.32367">
        <ele>66.199997</ele>
        <time>2012-01-04T10:56:53Z</time>
      </trkpt>
      <trkpt lat="47.53495" lon="-2.32361">
        <ele>65.800003</ele>
        <time>2012-01-04T10:56:54Z</time>
      </trkpt>
      <trkpt lat="47.53491" lon="-2.32355">
        <ele>65.5</ele>
        <time>2012-01-04T10:56:55Z</time>
      </trkpt>
      <trkpt lat="47.53486" lon="-2.32349">
        <ele>65.300003</ele>
        <time>2012-01-04T10:56:56Z</time>
      </trkpt>
      <trkpt lat="47.53482" lon="-2.32342">
        <ele>65.099998</ele>
        <time>2012-01-04T10:56:57Z</time>
      </trkpt>
      <trkpt lat="47.53478" lon="-2.32336">
        <ele>64.900002</ele>
        <time>2012-01-04T10:56:58Z</time>
      </trkpt>
      <trkpt lat="47.53473" lon="-2.3233">
        <ele>65</ele>
        <time>2012-01-04T10:56:59Z</time>
      </trkpt>
      <trkpt lat="47.53469" lon="-2.32324">
        <ele>65</ele>
        <time>2012-01-04T10:57:00Z</time>
      </trkpt>
      <trkpt lat="47.53464" lon="-2.32318">
        <ele>65</ele>
        <time>2012-01-04T10:57:01Z</time>
      </trkpt>
      <trkpt lat="47.5346" lon="-2.32312">
        <ele>65.099998</ele>
        <time>2012-01-04T10:57:02Z</time>
      </trkpt>
      <trkpt lat="47.53456" lon="-2.32306">
        <ele>65.199997</ele>
        <time>2012-01-04T10:57:03Z</time>
      </trkpt>
      <trkpt lat="47.53451" lon="-2.32301">
        <ele>65.199997</ele>
        <time>2012-01-04T10:57:04Z</time>
      </trkpt>
      <trkpt lat="47.53448" lon="-2.32295">
        <ele>65.300003</ele>
        <time>2012-01-04T10:57:05Z</time>
      </trkpt>
      <trkpt lat="47.53442" lon="-2.32287">
        <ele>65.5</ele>
        <time>2012-01-04T10:57:07Z</time>
      </trkpt>
      <trkpt lat="47.53435" lon="-2.32277">
        <ele>64.5</ele>
        <time>2012-01-04T10:57:09Z</time>
      </trkpt>
      <trkpt lat="47.53432" lon="-2.32273">
        <ele>63.700001</ele>
        <time>2012-01-04T10:57:10Z</time>
      </trkpt>
      <trkpt lat="47.53428" lon="-2.32268">
        <ele>63.099998</ele>
        <time>2012-01-04T10:57:11Z</time>
      </trkpt>
      <trkpt lat="47.53424" lon="-2.32263">
        <ele>63.400002</ele>
        <time>2012-01-04T10:57:12Z</time>
      </trkpt>
      <trkpt lat="47.5342" lon="-2.32257">
        <ele>63.599998</ele>
        <time>2012-01-04T10:57:13Z</time>
      </trkpt>
      <trkpt lat="47.53417" lon="-2.32251">
        <ele>63.700001</ele>
        <time>2012-01-04T10:57:14Z</time>
      </trkpt>
      <trkpt lat="47.53413" lon="-2.32246">
        <ele>63.400002</ele>
        <time>2012-01-04T10:57:15Z</time>
      </trkpt>
      <trkpt lat="47.53409" lon="-2.3224">
        <ele>63.200001</ele>
        <time>2012-01-04T10:57:16Z</time>
      </trkpt>
      <trkpt lat="47.53404" lon="-2.32234">
        <ele>63.099998</ele>
        <time>2012-01-04T10:57:17Z</time>
      </trkpt>
      <trkpt lat="47.534" lon="-2.32229">
        <ele>62.799999</ele>
        <time>2012-01-04T10:57:18Z</time>
      </trkpt>
      <trkpt lat="47.53396" lon="-2.32223">
        <ele>62.599998</ele>
        <time>2012-01-04T10:57:19Z</time>
      </trkpt>
      <trkpt lat="47.53392" lon="-2.32217">
        <ele>62.5</ele>
        <time>2012-01-04T10:57:20Z</time>
      </trkpt>
      <trkpt lat="47.53387" lon="-2.32211">
        <ele>62.400002</ele>
        <time>2012-01-04T10:57:21Z</time>
      </trkpt>
      <trkpt lat="47.53383" lon="-2.32205">
        <ele>62.599998</ele>
        <time>2012-01-04T10:57:22Z</time>
      </trkpt>
      <trkpt lat="47.53378" lon="-2.32199">
        <ele>62.799999</ele>
        <time>2012-01-04T10:57:23Z</time>
      </trkpt>
      <trkpt lat="47.53374" lon="-2.32193">
        <ele>63</ele>
        <time>2012-01-04T10:57:24Z</time>
      </trkpt>
      <trkpt lat="47.5337" lon="-2.32187">
        <ele>62.900002</ele>
        <time>2012-01-04T10:57:25Z</time>
      </trkpt>
      <trkpt lat="47.53366" lon="-2.32182">
        <ele>62.900002</ele>
        <time>2012-01-04T10:57:26Z</time>
      </trkpt>
      <trkpt lat="47.53362" lon="-2.32176">
        <ele>62.799999</ele>
        <time>2012-01-04T10:57:27Z</time>
      </trkpt>
      <trkpt lat="47.53358" lon="-2.3217">
        <ele>62.700001</ele>
        <time>2012-01-04T10:57:28Z</time>
      </trkpt>
      <trkpt lat="47.53354" lon="-2.32165">
        <ele>62.599998</ele>
        <time>2012-01-04T10:57:29Z</time>
      </trkpt>
      <trkpt lat="47.5335" lon="-2.3216">
        <ele>62.599998</ele>
        <time>2012-01-04T10:57:30Z</time>
      </trkpt>
      <trkpt lat="47.53347" lon="-2.32155">
        <ele>62.599998</ele>
        <time>2012-01-04T10:57:31Z</time>
      </trkpt>
      <trkpt lat="47.53343" lon="-2.3215">
        <ele>62.5</ele>
        <time>2012-01-04T10:57:32Z</time>
      </trkpt>
      <trkpt lat="47.5334" lon="-2.32146">
        <ele>62.5</ele>
        <time>2012-01-04T10:57:33Z</time>
      </trkpt>
      <trkpt lat="47.53333" lon="-2.32137">
        <ele>62.400002</ele>
        <time>2012-01-04T10:57:35Z</time>
      </trkpt>
      <trkpt lat="47.53327" lon="-2.32128">
        <ele>62.200001</ele>
        <time>2012-01-04T10:57:37Z</time>
      </trkpt>
      <trkpt lat="47.53322" lon="-2.3212">
        <ele>61.900002</ele>
        <time>2012-01-04T10:57:39Z</time>
      </trkpt>
      <trkpt lat="47.53316" lon="-2.32112">
        <ele>61.400002</ele>
        <time>2012-01-04T10:57:41Z</time>
      </trkpt>
      <trkpt lat="47.53311" lon="-2.32104">
        <ele>60.900002</ele>
        <time>2012-01-04T10:57:43Z</time>
      </trkpt>
      <trkpt lat="47.53305" lon="-2.32099">
        <ele>61.599998</ele>
        <time>2012-01-04T10:57:45Z</time>
      </trkpt>
      <trkpt lat="47.533" lon="-2.32091">
        <ele>61.900002</ele>
        <time>2012-01-04T10:57:47Z</time>
      </trkpt>
      <trkpt lat="47.53294" lon="-2.32083">
        <ele>61.900002</ele>
        <time>2012-01-04T10:57:49Z</time>
      </trkpt>
      <trkpt lat="47.53288" lon="-2.32074">
        <ele>62.200001</ele>
        <time>2012-01-04T10:57:51Z</time>
      </trkpt>
      <trkpt lat="47.53284" lon="-2.3207">
        <ele>62.299999</ele>
        <time>2012-01-04T10:57:52Z</time>
      </trkpt>
      <trkpt lat="47.53281" lon="-2.32065">
        <ele>62.200001</ele>
        <time>2012-01-04T10:57:53Z</time>
      </trkpt>
      <trkpt lat="47.53278" lon="-2.3206">
        <ele>62.099998</ele>
        <time>2012-01-04T10:57:54Z</time>
      </trkpt>
      <trkpt lat="47.53274" lon="-2.32056">
        <ele>62</ele>
        <time>2012-01-04T10:57:55Z</time>
      </trkpt>
      <trkpt lat="47.53271" lon="-2.32051">
        <ele>61.900002</ele>
        <time>2012-01-04T10:57:56Z</time>
      </trkpt>
      <trkpt lat="47.53267" lon="-2.32046">
        <ele>61.799999</ele>
        <time>2012-01-04T10:57:57Z</time>
      </trkpt>
      <trkpt lat="47.53264" lon="-2.32042">
        <ele>61.700001</ele>
        <time>2012-01-04T10:57:58Z</time>
      </trkpt>
      <trkpt lat="47.53261" lon="-2.32037">
        <ele>61.700001</ele>
        <time>2012-01-04T10:57:59Z</time>
      </trkpt>
      <trkpt lat="47.53257" lon="-2.32033">
        <ele>61.5</ele>
        <time>2012-01-04T10:58:00Z</time>
      </trkpt>
      <trkpt lat="47.53254" lon="-2.32028">
        <ele>61.299999</ele>
        <time>2012-01-04T10:58:01Z</time>
      </trkpt>
      <trkpt lat="47.5325" lon="-2.32023">
        <ele>61.200001</ele>
        <time>2012-01-04T10:58:02Z</time>
      </trkpt>
      <trkpt lat="47.53247" lon="-2.32018">
        <ele>61.200001</ele>
        <time>2012-01-04T10:58:03Z</time>
      </trkpt>
      <trkpt lat="47.53243" lon="-2.32013">
        <ele>61.299999</ele>
        <time>2012-01-04T10:58:04Z</time>
      </trkpt>
      <trkpt lat="47.5324" lon="-2.32007">
        <ele>61.299999</ele>
        <time>2012-01-04T10:58:05Z</time>
      </trkpt>
      <trkpt lat="47.53237" lon="-2.32002">
        <ele>61.200001</ele>
        <time>2012-01-04T10:58:06Z</time>
      </trkpt>
      <trkpt lat="47.5323" lon="-2.31994">
        <ele>61.200001</ele>
        <time>2012-01-04T10:58:08Z</time>
      </trkpt>
      <trkpt lat="47.53226" lon="-2.31989">
        <ele>61.200001</ele>
        <time>2012-01-04T10:58:09Z</time>
      </trkpt>
      <trkpt lat="47.53223" lon="-2.31984">
        <ele>61.200001</ele>
        <time>2012-01-04T10:58:10Z</time>
      </trkpt>
      <trkpt lat="47.5322" lon="-2.3198">
        <ele>61.299999</ele>
        <time>2012-01-04T10:58:11Z</time>
      </trkpt>
      <trkpt lat="47.53216" lon="-2.31975">
        <ele>61.299999</ele>
        <time>2012-01-04T10:58:12Z</time>
      </trkpt>
      <trkpt lat="47.53213" lon="-2.3197">
        <ele>61.099998</ele>
        <time>2012-01-04T10:58:13Z</time>
      </trkpt>
      <trkpt lat="47.53209" lon="-2.31965">
        <ele>61</ele>
        <time>2012-01-04T10:58:14Z</time>
      </trkpt>
      <trkpt lat="47.53206" lon="-2.3196">
        <ele>60.900002</ele>
        <time>2012-01-04T10:58:15Z</time>
      </trkpt>
      <trkpt lat="47.53203" lon="-2.31956">
        <ele>60.700001</ele>
        <time>2012-01-04T10:58:16Z</time>
      </trkpt>
      <trkpt lat="47.532" lon="-2.31951">
        <ele>60.599998</ele>
        <time>2012-01-04T10:58:17Z</time>
      </trkpt>
      <trkpt lat="47.53196" lon="-2.31946">
        <ele>60.5</ele>
        <time>2012-01-04T10:58:18Z</time>
      </trkpt>
      <trkpt lat="47.53193" lon="-2.31941">
        <ele>60.299999</ele>
        <time>2012-01-04T10:58:19Z</time>
      </trkpt>
      <trkpt lat="47.5319" lon="-2.31936">
        <ele>60.200001</ele>
        <time>2012-01-04T10:58:20Z</time>
      </trkpt>
      <trkpt lat="47.53186" lon="-2.31931">
        <ele>60.099998</ele>
        <time>2012-01-04T10:58:21Z</time>
      </trkpt>
      <trkpt lat="47.53183" lon="-2.31926">
        <ele>60.5</ele>
        <time>2012-01-04T10:58:22Z</time>
      </trkpt>
      <trkpt lat="47.53179" lon="-2.31921">
        <ele>60.799999</ele>
        <time>2012-01-04T10:58:23Z</time>
      </trkpt>
      <trkpt lat="47.53176" lon="-2.31916">
        <ele>61</ele>
        <time>2012-01-04T10:58:24Z</time>
      </trkpt>
      <trkpt lat="47.53173" lon="-2.31912">
        <ele>61.099998</ele>
        <time>2012-01-04T10:58:25Z</time>
      </trkpt>
      <trkpt lat="47.53169" lon="-2.31907">
        <ele>61.200001</ele>
        <time>2012-01-04T10:58:26Z</time>
      </trkpt>
      <trkpt lat="47.53166" lon="-2.31902">
        <ele>61.200001</ele>
        <time>2012-01-04T10:58:27Z</time>
      </trkpt>
      <trkpt lat="47.53157" lon="-2.31889">
        <ele>60.900002</ele>
        <time>2012-01-04T10:58:30Z</time>
      </trkpt>
      <trkpt lat="47.53153" lon="-2.3188">
        <ele>61</ele>
        <time>2012-01-04T10:58:32Z</time>
      </trkpt>
      <trkpt lat="47.53149" lon="-2.31873">
        <ele>61.299999</ele>
        <time>2012-01-04T10:58:34Z</time>
      </trkpt>
      <trkpt lat="47.53143" lon="-2.31863">
        <ele>61.400002</ele>
        <time>2012-01-04T10:58:37Z</time>
      </trkpt>
      <trkpt lat="47.53138" lon="-2.31856">
        <ele>61.799999</ele>
        <time>2012-01-04T10:58:39Z</time>
      </trkpt>
      <trkpt lat="47.53134" lon="-2.3185">
        <ele>62.200001</ele>
        <time>2012-01-04T10:58:41Z</time>
      </trkpt>
      <trkpt lat="47.5313" lon="-2.31844">
        <ele>62.5</ele>
        <time>2012-01-04T10:58:43Z</time>
      </trkpt>
      <trkpt lat="47.53125" lon="-2.31837">
        <ele>62.900002</ele>
        <time>2012-01-04T10:58:45Z</time>
      </trkpt>
      <trkpt lat="47.53119" lon="-2.31829">
        <ele>62.799999</ele>
        <time>2012-01-04T10:58:48Z</time>
      </trkpt>
      <trkpt lat="47.53112" lon="-2.31822">
        <ele>62</ele>
        <time>2012-01-04T10:58:52Z</time>
      </trkpt>
      <trkpt lat="47.53106" lon="-2.31814">
        <ele>63.099998</ele>
        <time>2012-01-04T11:00:03Z</time>
      </trkpt>
      <trkpt lat="47.53104" lon="-2.31812">
        <ele>62.400002</ele>
        <time>2012-01-04T11:00:04Z</time>
      </trkpt>
      <trkpt lat="47.53094" lon="-2.31799">
        <ele>62.200001</ele>
        <time>2012-01-04T11:00:09Z</time>
      </trkpt>
      <trkpt lat="47.5309" lon="-2.31792">
        <ele>62.299999</ele>
        <time>2012-01-04T11:00:11Z</time>
      </trkpt>
      <trkpt lat="47.53084" lon="-2.31782">
        <ele>62</ele>
        <time>2012-01-04T11:00:14Z</time>
      </trkpt>
      <trkpt lat="47.53078" lon="-2.31774">
        <ele>61.400002</ele>
        <time>2012-01-04T11:00:17Z</time>
      </trkpt>
      <trkpt lat="47.53072" lon="-2.31764">
        <ele>61.099998</ele>
        <time>2012-01-04T11:00:21Z</time>
      </trkpt>
      <trkpt lat="47.53068" lon="-2.31756">
        <ele>61.200001</ele>
        <time>2012-01-04T11:00:24Z</time>
      </trkpt>
      <trkpt lat="47.53063" lon="-2.31745">
        <ele>61.700001</ele>
        <time>2012-01-04T11:00:28Z</time>
      </trkpt>
      <trkpt lat="47.53059" lon="-2.31734">
        <ele>62.599998</ele>
        <time>2012-01-04T11:00:32Z</time>
      </trkpt>
      <trkpt lat="47.53056" lon="-2.31723">
        <ele>61.900002</ele>
        <time>2012-01-04T11:00:36Z</time>
      </trkpt>
      <trkpt lat="47.53062" lon="-2.31719">
        <ele>63.099998</ele>
        <time>2012-01-04T11:00:41Z</time>
      </trkpt>
      <trkpt lat="47.53071" lon="-2.31719">
        <ele>62.700001</ele>
        <time>2012-01-04T11:00:44Z</time>
      </trkpt>
      <trkpt lat="47.53077" lon="-2.3172">
        <ele>62</ele>
        <time>2012-01-04T11:00:46Z</time>
      </trkpt>
      <trkpt lat="47.53084" lon="-2.31719">
        <ele>61.5</ele>
        <time>2012-01-04T11:00:48Z</time>
      </trkpt>
      <trkpt lat="47.53092" lon="-2.31717">
        <ele>61</ele>
        <time>2012-01-04T11:00:51Z</time>
      </trkpt>
      <trkpt lat="47.53096" lon="-2.31706">
        <ele>60.900002</ele>
        <time>2012-01-04T11:00:54Z</time>
      </trkpt>
      <trkpt lat="47.53097" lon="-2.31695">
        <ele>60</ele>
        <time>2012-01-04T11:00:56Z</time>
      </trkpt>
      <trkpt lat="47.53098" lon="-2.31688">
        <ele>59.799999</ele>
        <time>2012-01-04T11:00:57Z</time>
      </trkpt>
      <trkpt lat="47.53098" lon="-2.31682">
        <ele>59.599998</ele>
        <time>2012-01-04T11:00:58Z</time>
      </trkpt>
      <trkpt lat="47.53099" lon="-2.31674">
        <ele>59.400002</ele>
        <time>2012-01-04T11:00:59Z</time>
      </trkpt>
      <trkpt lat="47.53101" lon="-2.31667">
        <ele>59.299999</ele>
        <time>2012-01-04T11:01:00Z</time>
      </trkpt>
      <trkpt lat="47.53102" lon="-2.3166">
        <ele>59.200001</ele>
        <time>2012-01-04T11:01:01Z</time>
      </trkpt>
      <trkpt lat="47.53103" lon="-2.31653">
        <ele>59.099998</ele>
        <time>2012-01-04T11:01:02Z</time>
      </trkpt>
      <trkpt lat="47.53103" lon="-2.31646">
        <ele>59</ele>
        <time>2012-01-04T11:01:03Z</time>
      </trkpt>
      <trkpt lat="47.53105" lon="-2.31634">
        <ele>59.099998</ele>
        <time>2012-01-04T11:01:05Z</time>
      </trkpt>
      <trkpt lat="47.53108" lon="-2.31631">
        <ele>59.299999</ele>
        <time>2012-01-04T11:01:06Z</time>
      </trkpt>
      <trkpt lat="47.53121" lon="-2.3163">
        <ele>58.400002</ele>
        <time>2012-01-04T11:01:09Z</time>
      </trkpt>
      <trkpt lat="47.53126" lon="-2.31631">
        <ele>58.099998</ele>
        <time>2012-01-04T11:01:10Z</time>
      </trkpt>
      <trkpt lat="47.53131" lon="-2.31632">
        <ele>58.099998</ele>
        <time>2012-01-04T11:01:11Z</time>
      </trkpt>
      <trkpt lat="47.53135" lon="-2.31632">
        <ele>58.099998</ele>
        <time>2012-01-04T11:01:12Z</time>
      </trkpt>
      <trkpt lat="47.5314" lon="-2.31632">
        <ele>58.099998</ele>
        <time>2012-01-04T11:01:13Z</time>
      </trkpt>
      <trkpt lat="47.53149" lon="-2.3163">
        <ele>58.400002</ele>
        <time>2012-01-04T11:01:15Z</time>
      </trkpt>
      <trkpt lat="47.53157" lon="-2.31627">
        <ele>58.799999</ele>
        <time>2012-01-04T11:01:17Z</time>
      </trkpt>
      <trkpt lat="47.53163" lon="-2.31623">
        <ele>58.700001</ele>
        <time>2012-01-04T11:01:19Z</time>
      </trkpt>
      <trkpt lat="47.53172" lon="-2.31619">
        <ele>59.200001</ele>
        <time>2012-01-04T11:01:22Z</time>
      </trkpt>
      <trkpt lat="47.5318" lon="-2.31615">
        <ele>60.5</ele>
        <time>2012-01-04T11:01:27Z</time>
      </trkpt>
      <trkpt lat="47.53188" lon="-2.31609">
        <ele>62.099998</ele>
        <time>2012-01-04T11:01:35Z</time>
      </trkpt>
      <trkpt lat="47.53193" lon="-2.316">
        <ele>62.799999</ele>
        <time>2012-01-04T11:01:43Z</time>
      </trkpt>
      <trkpt lat="47.53194" lon="-2.31588">
        <ele>63.299999</ele>
        <time>2012-01-04T11:01:52Z</time>
      </trkpt>
      <trkpt lat="47.53194" lon="-2.31575">
        <ele>63</ele>
        <time>2012-01-04T11:01:55Z</time>
      </trkpt>
      <trkpt lat="47.53194" lon="-2.31564">
        <ele>63</ele>
        <time>2012-01-04T11:01:57Z</time>
      </trkpt>
      <trkpt lat="47.53195" lon="-2.31554">
        <ele>62.900002</ele>
        <time>2012-01-04T11:01:59Z</time>
      </trkpt>
      <trkpt lat="47.53195" lon="-2.31544">
        <ele>62.700001</ele>
        <time>2012-01-04T11:02:01Z</time>
      </trkpt>
      <trkpt lat="47.53195" lon="-2.31536">
        <ele>63</ele>
        <time>2012-01-04T11:02:03Z</time>
      </trkpt>
      <trkpt lat="47.53195" lon="-2.31526">
        <ele>63.099998</ele>
        <time>2012-01-04T11:02:05Z</time>
      </trkpt>
      <trkpt lat="47.53195" lon="-2.31516">
        <ele>63.299999</ele>
        <time>2012-01-04T11:02:07Z</time>
      </trkpt>
      <trkpt lat="47.53196" lon="-2.31511">
        <ele>63.299999</ele>
        <time>2012-01-04T11:02:08Z</time>
      </trkpt>
      <trkpt lat="47.53197" lon="-2.31498">
        <ele>64.599998</ele>
        <time>2012-01-04T11:02:11Z</time>
      </trkpt>
      <trkpt lat="47.53198" lon="-2.31489">
        <ele>65</ele>
        <time>2012-01-04T11:02:13Z</time>
      </trkpt>
      <trkpt lat="47.53199" lon="-2.31479">
        <ele>65</ele>
        <time>2012-01-04T11:02:15Z</time>
      </trkpt>
      <trkpt lat="47.53199" lon="-2.3147">
        <ele>64.900002</ele>
        <time>2012-01-04T11:02:17Z</time>
      </trkpt>
      <trkpt lat="47.53199" lon="-2.31459">
        <ele>64.900002</ele>
        <time>2012-01-04T11:02:19Z</time>
      </trkpt>
      <trkpt lat="47.53199" lon="-2.31448">
        <ele>65</ele>
        <time>2012-01-04T11:02:21Z</time>
      </trkpt>
      <trkpt lat="47.532" lon="-2.31438">
        <ele>64.900002</ele>
        <time>2012-01-04T11:02:23Z</time>
      </trkpt>
      <trkpt lat="47.53202" lon="-2.31425">
        <ele>64.699997</ele>
        <time>2012-01-04T11:02:26Z</time>
      </trkpt>
      <trkpt lat="47.53204" lon="-2.31412">
        <ele>64.199997</ele>
        <time>2012-01-04T11:02:29Z</time>
      </trkpt>
      <trkpt lat="47.53205" lon="-2.31404">
        <ele>64.099998</ele>
        <time>2012-01-04T11:02:31Z</time>
      </trkpt>
      <trkpt lat="47.53208" lon="-2.31395">
        <ele>64.099998</ele>
        <time>2012-01-04T11:02:33Z</time>
      </trkpt>
      <trkpt lat="47.53211" lon="-2.31387">
        <ele>63.799999</ele>
        <time>2012-01-04T11:02:35Z</time>
      </trkpt>
      <trkpt lat="47.53217" lon="-2.31381">
        <ele>63.599998</ele>
        <time>2012-01-04T11:02:37Z</time>
      </trkpt>
      <trkpt lat="47.53225" lon="-2.31375">
        <ele>64.099998</ele>
        <time>2012-01-04T11:02:40Z</time>
      </trkpt>
      <trkpt lat="47.53233" lon="-2.31373">
        <ele>63.700001</ele>
        <time>2012-01-04T11:02:43Z</time>
      </trkpt>
      <trkpt lat="47.53241" lon="-2.31371">
        <ele>64.699997</ele>
        <time>2012-01-04T11:02:46Z</time>
      </trkpt>
      <trkpt lat="47.5325" lon="-2.31369">
        <ele>65.599998</ele>
        <time>2012-01-04T11:02:49Z</time>
      </trkpt>
      <trkpt lat="47.53258" lon="-2.31367">
        <ele>65.900002</ele>
        <time>2012-01-04T11:02:52Z</time>
      </trkpt>
      <trkpt lat="47.53266" lon="-2.31362">
        <ele>65.400002</ele>
        <time>2012-01-04T11:02:55Z</time>
      </trkpt>
      <trkpt lat="47.53271" lon="-2.31355">
        <ele>65.300003</ele>
        <time>2012-01-04T11:02:57Z</time>
      </trkpt>
      <trkpt lat="47.53273" lon="-2.31346">
        <ele>65.5</ele>
        <time>2012-01-04T11:02:59Z</time>
      </trkpt>
      <trkpt lat="47.53274" lon="-2.31336">
        <ele>66</ele>
        <time>2012-01-04T11:03:01Z</time>
      </trkpt>
      <trkpt lat="47.53274" lon="-2.31328">
        <ele>65.900002</ele>
        <time>2012-01-04T11:03:03Z</time>
      </trkpt>
      <trkpt lat="47.53273" lon="-2.31318">
        <ele>65.599998</ele>
        <time>2012-01-04T11:03:05Z</time>
      </trkpt>
      <trkpt lat="47.53273" lon="-2.31309">
        <ele>66.300003</ele>
        <time>2012-01-04T11:03:07Z</time>
      </trkpt>
      <trkpt lat="47.53271" lon="-2.31298">
        <ele>65.800003</ele>
        <time>2012-01-04T11:03:09Z</time>
      </trkpt>
      <trkpt lat="47.53271" lon="-2.31293">
        <ele>65.300003</ele>
        <time>2012-01-04T11:03:10Z</time>
      </trkpt>
      <trkpt lat="47.53268" lon="-2.31275">
        <ele>64.599998</ele>
        <time>2012-01-04T11:03:13Z</time>
      </trkpt>
      <trkpt lat="47.53266" lon="-2.31263">
        <ele>64.699997</ele>
        <time>2012-01-04T11:03:15Z</time>
      </trkpt>
      <trkpt lat="47.53264" lon="-2.31252">
        <ele>64.400002</ele>
        <time>2012-01-04T11:03:17Z</time>
      </trkpt>
      <trkpt lat="47.53262" lon="-2.3124">
        <ele>64.599998</ele>
        <time>2012-01-04T11:03:19Z</time>
      </trkpt>
      <trkpt lat="47.53259" lon="-2.31229">
        <ele>64.800003</ele>
        <time>2012-01-04T11:03:21Z</time>
      </trkpt>
      <trkpt lat="47.53257" lon="-2.31218">
        <ele>64.599998</ele>
        <time>2012-01-04T11:03:23Z</time>
      </trkpt>
      <trkpt lat="47.53256" lon="-2.31207">
        <ele>64.699997</ele>
        <time>2012-01-04T11:03:25Z</time>
      </trkpt>
      <trkpt lat="47.53254" lon="-2.31196">
        <ele>65</ele>
        <time>2012-01-04T11:03:27Z</time>
      </trkpt>
      <trkpt lat="47.53253" lon="-2.31184">
        <ele>65.099998</ele>
        <time>2012-01-04T11:03:29Z</time>
      </trkpt>
      <trkpt lat="47.53252" lon="-2.31172">
        <ele>65.099998</ele>
        <time>2012-01-04T11:03:31Z</time>
      </trkpt>
      <trkpt lat="47.5325" lon="-2.31159">
        <ele>65.5</ele>
        <time>2012-01-04T11:03:33Z</time>
      </trkpt>
      <trkpt lat="47.53249" lon="-2.31152">
        <ele>65.599998</ele>
        <time>2012-01-04T11:03:34Z</time>
      </trkpt>
      <trkpt lat="47.53248" lon="-2.31145">
        <ele>64.900002</ele>
        <time>2012-01-04T11:03:35Z</time>
      </trkpt>
      <trkpt lat="47.53247" lon="-2.31138">
        <ele>64.400002</ele>
        <time>2012-01-04T11:03:36Z</time>
      </trkpt>
      <trkpt lat="47.53247" lon="-2.31131">
        <ele>64</ele>
        <time>2012-01-04T11:03:37Z</time>
      </trkpt>
      <trkpt lat="47.53246" lon="-2.31124">
        <ele>64.199997</ele>
        <time>2012-01-04T11:03:38Z</time>
      </trkpt>
      <trkpt lat="47.53245" lon="-2.31117">
        <ele>64.400002</ele>
        <time>2012-01-04T11:03:39Z</time>
      </trkpt>
      <trkpt lat="47.53245" lon="-2.31109">
        <ele>64.5</ele>
        <time>2012-01-04T11:03:40Z</time>
      </trkpt>
      <trkpt lat="47.53244" lon="-2.31102">
        <ele>64.400002</ele>
        <time>2012-01-04T11:03:41Z</time>
      </trkpt>
      <trkpt lat="47.53243" lon="-2.31095">
        <ele>64.300003</ele>
        <time>2012-01-04T11:03:42Z</time>
      </trkpt>
      <trkpt lat="47.53242" lon="-2.31088">
        <ele>64.199997</ele>
        <time>2012-01-04T11:03:43Z</time>
      </trkpt>
      <trkpt lat="47.53239" lon="-2.31075">
        <ele>63.799999</ele>
        <time>2012-01-04T11:03:45Z</time>
      </trkpt>
      <trkpt lat="47.5324" lon="-2.31064">
        <ele>63.400002</ele>
        <time>2012-01-04T11:03:47Z</time>
      </trkpt>
      <trkpt lat="47.53244" lon="-2.31057">
        <ele>63</ele>
        <time>2012-01-04T11:03:49Z</time>
      </trkpt>
      <trkpt lat="47.53251" lon="-2.31054">
        <ele>62.299999</ele>
        <time>2012-01-04T11:03:51Z</time>
      </trkpt>
      <trkpt lat="47.53256" lon="-2.31053">
        <ele>61.799999</ele>
        <time>2012-01-04T11:03:52Z</time>
      </trkpt>
      <trkpt lat="47.5326" lon="-2.31051">
        <ele>61.400002</ele>
        <time>2012-01-04T11:03:53Z</time>
      </trkpt>
      <trkpt lat="47.53265" lon="-2.31049">
        <ele>61.099998</ele>
        <time>2012-01-04T11:03:54Z</time>
      </trkpt>
      <trkpt lat="47.53271" lon="-2.31048">
        <ele>60.900002</ele>
        <time>2012-01-04T11:03:55Z</time>
      </trkpt>
      <trkpt lat="47.53277" lon="-2.31046">
        <ele>60.700001</ele>
        <time>2012-01-04T11:03:56Z</time>
      </trkpt>
      <trkpt lat="47.53283" lon="-2.31045">
        <ele>60.5</ele>
        <time>2012-01-04T11:03:57Z</time>
      </trkpt>
      <trkpt lat="47.53289" lon="-2.31042">
        <ele>60.400002</ele>
        <time>2012-01-04T11:03:58Z</time>
      </trkpt>
      <trkpt lat="47.53296" lon="-2.3104">
        <ele>60.299999</ele>
        <time>2012-01-04T11:03:59Z</time>
      </trkpt>
      <trkpt lat="47.53303" lon="-2.31038">
        <ele>60.299999</ele>
        <time>2012-01-04T11:04:00Z</time>
      </trkpt>
      <trkpt lat="47.53311" lon="-2.31036">
        <ele>59.5</ele>
        <time>2012-01-04T11:04:01Z</time>
      </trkpt>
      <trkpt lat="47.53318" lon="-2.31034">
        <ele>59</ele>
        <time>2012-01-04T11:04:02Z</time>
      </trkpt>
      <trkpt lat="47.53326" lon="-2.31032">
        <ele>58.599998</ele>
        <time>2012-01-04T11:04:03Z</time>
      </trkpt>
      <trkpt lat="47.53334" lon="-2.3103">
        <ele>57.700001</ele>
        <time>2012-01-04T11:04:04Z</time>
      </trkpt>
      <trkpt lat="47.53342" lon="-2.31028">
        <ele>57</ele>
        <time>2012-01-04T11:04:05Z</time>
      </trkpt>
      <trkpt lat="47.5335" lon="-2.31026">
        <ele>56.5</ele>
        <time>2012-01-04T11:04:06Z</time>
      </trkpt>
      <trkpt lat="47.53357" lon="-2.31023">
        <ele>56</ele>
        <time>2012-01-04T11:04:07Z</time>
      </trkpt>
      <trkpt lat="47.53364" lon="-2.31022">
        <ele>55.599998</ele>
        <time>2012-01-04T11:04:08Z</time>
      </trkpt>
      <trkpt lat="47.5337" lon="-2.3102">
        <ele>55.299999</ele>
        <time>2012-01-04T11:04:09Z</time>
      </trkpt>
      <trkpt lat="47.53376" lon="-2.31019">
        <ele>54</ele>
        <time>2012-01-04T11:04:10Z</time>
      </trkpt>
      <trkpt lat="47.53382" lon="-2.31017">
        <ele>53.099998</ele>
        <time>2012-01-04T11:04:11Z</time>
      </trkpt>
      <trkpt lat="47.53387" lon="-2.31015">
        <ele>52.299999</ele>
        <time>2012-01-04T11:04:12Z</time>
      </trkpt>
      <trkpt lat="47.53392" lon="-2.31012">
        <ele>51.400002</ele>
        <time>2012-01-04T11:04:13Z</time>
      </trkpt>
      <trkpt lat="47.53399" lon="-2.31005">
        <ele>50.299999</ele>
        <time>2012-01-04T11:04:15Z</time>
      </trkpt>
      <trkpt lat="47.53407" lon="-2.31002">
        <ele>49.5</ele>
        <time>2012-01-04T11:04:17Z</time>
      </trkpt>
      <trkpt lat="47.53415" lon="-2.31001">
        <ele>49.099998</ele>
        <time>2012-01-04T11:04:19Z</time>
      </trkpt>
      <trkpt lat="47.53422" lon="-2.31">
        <ele>47.5</ele>
        <time>2012-01-04T11:04:22Z</time>
      </trkpt>
      <trkpt lat="47.53423" lon="-2.3099">
        <ele>46.400002</ele>
        <time>2012-01-04T11:04:25Z</time>
      </trkpt>
      <trkpt lat="47.53421" lon="-2.30978">
        <ele>46</ele>
        <time>2012-01-04T11:04:28Z</time>
      </trkpt>
      <trkpt lat="47.5342" lon="-2.30968">
        <ele>46.200001</ele>
        <time>2012-01-04T11:04:30Z</time>
      </trkpt>
      <trkpt lat="47.53418" lon="-2.30958">
        <ele>46.200001</ele>
        <time>2012-01-04T11:04:32Z</time>
      </trkpt>
      <trkpt lat="47.53417" lon="-2.30948">
        <ele>46.099998</ele>
        <time>2012-01-04T11:04:34Z</time>
      </trkpt>
      <trkpt lat="47.53416" lon="-2.30938">
        <ele>46</ele>
        <time>2012-01-04T11:04:36Z</time>
      </trkpt>
      <trkpt lat="47.53414" lon="-2.30929">
        <ele>46</ele>
        <time>2012-01-04T11:04:38Z</time>
      </trkpt>
      <trkpt lat="47.53411" lon="-2.30917">
        <ele>46.599998</ele>
        <time>2012-01-04T11:04:41Z</time>
      </trkpt>
      <trkpt lat="47.5341" lon="-2.30905">
        <ele>46.900002</ele>
        <time>2012-01-04T11:06:20Z</time>
      </trkpt>
      <trkpt lat="47.5341" lon="-2.30902">
        <ele>46.700001</ele>
        <time>2012-01-04T11:06:21Z</time>
      </trkpt>
      <trkpt lat="47.53407" lon="-2.30887">
        <ele>47</ele>
        <time>2012-01-04T11:06:25Z</time>
      </trkpt>
      <trkpt lat="47.53405" lon="-2.30878">
        <ele>46.5</ele>
        <time>2012-01-04T11:06:27Z</time>
      </trkpt>
      <trkpt lat="47.53404" lon="-2.30868">
        <ele>45.799999</ele>
        <time>2012-01-04T11:06:29Z</time>
      </trkpt>
      <trkpt lat="47.53401" lon="-2.30859">
        <ele>46.900002</ele>
        <time>2012-01-04T11:06:31Z</time>
      </trkpt>
      <trkpt lat="47.53398" lon="-2.30849">
        <ele>47.5</ele>
        <time>2012-01-04T11:06:33Z</time>
      </trkpt>
      <trkpt lat="47.53394" lon="-2.3084">
        <ele>47.599998</ele>
        <time>2012-01-04T11:06:35Z</time>
      </trkpt>
      <trkpt lat="47.5339" lon="-2.30831">
        <ele>47.400002</ele>
        <time>2012-01-04T11:06:37Z</time>
      </trkpt>
      <trkpt lat="47.53386" lon="-2.30822">
        <ele>47.099998</ele>
        <time>2012-01-04T11:06:39Z</time>
      </trkpt>
      <trkpt lat="47.53382" lon="-2.30814">
        <ele>47.599998</ele>
        <time>2012-01-04T11:06:41Z</time>
      </trkpt>
      <trkpt lat="47.53377" lon="-2.30805">
        <ele>47.900002</ele>
        <time>2012-01-04T11:06:43Z</time>
      </trkpt>
      <trkpt lat="47.53373" lon="-2.30797">
        <ele>48.099998</ele>
        <time>2012-01-04T11:06:45Z</time>
      </trkpt>
      <trkpt lat="47.53369" lon="-2.30788">
        <ele>49.299999</ele>
        <time>2012-01-04T11:06:47Z</time>
      </trkpt>
      <trkpt lat="47.53364" lon="-2.3078">
        <ele>49.599998</ele>
        <time>2012-01-04T11:06:49Z</time>
      </trkpt>
      <trkpt lat="47.53359" lon="-2.30772">
        <ele>49.400002</ele>
        <time>2012-01-04T11:06:51Z</time>
      </trkpt>
      <trkpt lat="47.53355" lon="-2.30764">
        <ele>49.599998</ele>
        <time>2012-01-04T11:06:53Z</time>
      </trkpt>
      <trkpt lat="47.5335" lon="-2.30756">
        <ele>49.700001</ele>
        <time>2012-01-04T11:06:55Z</time>
      </trkpt>
      <trkpt lat="47.53343" lon="-2.30748">
        <ele>50.799999</ele>
        <time>2012-01-04T11:06:59Z</time>
      </trkpt>
      <trkpt lat="47.53339" lon="-2.30739">
        <ele>49.5</ele>
        <time>2012-01-04T11:08:24Z</time>
      </trkpt>
      <trkpt lat="47.53337" lon="-2.30736">
        <ele>49.799999</ele>
        <time>2012-01-04T11:08:25Z</time>
      </trkpt>
      <trkpt lat="47.5333" lon="-2.30725">
        <ele>50.299999</ele>
        <time>2012-01-04T11:08:28Z</time>
      </trkpt>
      <trkpt lat="47.53324" lon="-2.30716">
        <ele>50.400002</ele>
        <time>2012-01-04T11:08:30Z</time>
      </trkpt>
      <trkpt lat="47.53317" lon="-2.30708">
        <ele>50</ele>
        <time>2012-01-04T11:08:32Z</time>
      </trkpt>
      <trkpt lat="47.53314" lon="-2.30703">
        <ele>49.799999</ele>
        <time>2012-01-04T11:08:33Z</time>
      </trkpt>
      <trkpt lat="47.5331" lon="-2.30698">
        <ele>50.200001</ele>
        <time>2012-01-04T11:08:34Z</time>
      </trkpt>
      <trkpt lat="47.53306" lon="-2.30693">
        <ele>50.5</ele>
        <time>2012-01-04T11:08:35Z</time>
      </trkpt>
      <trkpt lat="47.53302" lon="-2.30688">
        <ele>50.799999</ele>
        <time>2012-01-04T11:08:36Z</time>
      </trkpt>
      <trkpt lat="47.53298" lon="-2.30683">
        <ele>50.900002</ele>
        <time>2012-01-04T11:08:37Z</time>
      </trkpt>
      <trkpt lat="47.53294" lon="-2.30677">
        <ele>50.799999</ele>
        <time>2012-01-04T11:08:38Z</time>
      </trkpt>
      <trkpt lat="47.5329" lon="-2.30672">
        <ele>50.700001</ele>
        <time>2012-01-04T11:08:39Z</time>
      </trkpt>
      <trkpt lat="47.53286" lon="-2.30666">
        <ele>50.599998</ele>
        <time>2012-01-04T11:08:40Z</time>
      </trkpt>
      <trkpt lat="47.53282" lon="-2.30661">
        <ele>50.200001</ele>
        <time>2012-01-04T11:08:41Z</time>
      </trkpt>
      <trkpt lat="47.53277" lon="-2.30655">
        <ele>49.900002</ele>
        <time>2012-01-04T11:08:42Z</time>
      </trkpt>
      <trkpt lat="47.53273" lon="-2.3065">
        <ele>49.700001</ele>
        <time>2012-01-04T11:08:43Z</time>
      </trkpt>
      <trkpt lat="47.53269" lon="-2.30644">
        <ele>49.599998</ele>
        <time>2012-01-04T11:08:44Z</time>
      </trkpt>
      <trkpt lat="47.53265" lon="-2.30638">
        <ele>49.5</ele>
        <time>2012-01-04T11:08:45Z</time>
      </trkpt>
      <trkpt lat="47.5326" lon="-2.30632">
        <ele>49.5</ele>
        <time>2012-01-04T11:08:46Z</time>
      </trkpt>
      <trkpt lat="47.53256" lon="-2.30626">
        <ele>49</ele>
        <time>2012-01-04T11:08:47Z</time>
      </trkpt>
      <trkpt lat="47.53251" lon="-2.3062">
        <ele>48.599998</ele>
        <time>2012-01-04T11:08:48Z</time>
      </trkpt>
      <trkpt lat="47.53247" lon="-2.30614">
        <ele>48.400002</ele>
        <time>2012-01-04T11:08:49Z</time>
      </trkpt>
      <trkpt lat="47.53242" lon="-2.30609">
        <ele>48.200001</ele>
        <time>2012-01-04T11:08:50Z</time>
      </trkpt>
      <trkpt lat="47.53238" lon="-2.30603">
        <ele>48.099998</ele>
        <time>2012-01-04T11:08:51Z</time>
      </trkpt>
      <trkpt lat="47.53233" lon="-2.30597">
        <ele>48</ele>
        <time>2012-01-04T11:08:52Z</time>
      </trkpt>
      <trkpt lat="47.53228" lon="-2.30591">
        <ele>47.900002</ele>
        <time>2012-01-04T11:08:53Z</time>
      </trkpt>
      <trkpt lat="47.53224" lon="-2.30584">
        <ele>47.5</ele>
        <time>2012-01-04T11:08:54Z</time>
      </trkpt>
      <trkpt lat="47.53219" lon="-2.30578">
        <ele>47.200001</ele>
        <time>2012-01-04T11:08:55Z</time>
      </trkpt>
      <trkpt lat="47.53215" lon="-2.30571">
        <ele>46.900002</ele>
        <time>2012-01-04T11:08:56Z</time>
      </trkpt>
      <trkpt lat="47.5321" lon="-2.30565">
        <ele>46.799999</ele>
        <time>2012-01-04T11:08:57Z</time>
      </trkpt>
      <trkpt lat="47.53207" lon="-2.30558">
        <ele>46.799999</ele>
        <time>2012-01-04T11:08:58Z</time>
      </trkpt>
      <trkpt lat="47.53204" lon="-2.30551">
        <ele>46.700001</ele>
        <time>2012-01-04T11:08:59Z</time>
      </trkpt>
      <trkpt lat="47.53202" lon="-2.30543">
        <ele>46.799999</ele>
        <time>2012-01-04T11:09:00Z</time>
      </trkpt>
      <trkpt lat="47.53202" lon="-2.30535">
        <ele>46.900002</ele>
        <time>2012-01-04T11:09:01Z</time>
      </trkpt>
      <trkpt lat="47.53203" lon="-2.30526">
        <ele>46.900002</ele>
        <time>2012-01-04T11:09:02Z</time>
      </trkpt>
      <trkpt lat="47.53205" lon="-2.30519">
        <ele>47</ele>
        <time>2012-01-04T11:09:03Z</time>
      </trkpt>
      <trkpt lat="47.53209" lon="-2.30514">
        <ele>47</ele>
        <time>2012-01-04T11:09:04Z</time>
      </trkpt>
      <trkpt lat="47.53214" lon="-2.3051">
        <ele>47</ele>
        <time>2012-01-04T11:09:05Z</time>
      </trkpt>
      <trkpt lat="47.53219" lon="-2.30507">
        <ele>46.900002</ele>
        <time>2012-01-04T11:09:06Z</time>
      </trkpt>
      <trkpt lat="47.53226" lon="-2.30507">
        <ele>46.799999</ele>
        <time>2012-01-04T11:09:07Z</time>
      </trkpt>
      <trkpt lat="47.53232" lon="-2.30507">
        <ele>46.700001</ele>
        <time>2012-01-04T11:09:08Z</time>
      </trkpt>
      <trkpt lat="47.5324" lon="-2.30508">
        <ele>46.299999</ele>
        <time>2012-01-04T11:09:09Z</time>
      </trkpt>
      <trkpt lat="47.53248" lon="-2.30509">
        <ele>46</ele>
        <time>2012-01-04T11:09:10Z</time>
      </trkpt>
      <trkpt lat="47.53256" lon="-2.30508">
        <ele>45.799999</ele>
        <time>2012-01-04T11:09:11Z</time>
      </trkpt>
      <trkpt lat="47.53265" lon="-2.30507">
        <ele>45.599998</ele>
        <time>2012-01-04T11:09:12Z</time>
      </trkpt>
      <trkpt lat="47.53274" lon="-2.30506">
        <ele>44.799999</ele>
        <time>2012-01-04T11:09:13Z</time>
      </trkpt>
      <trkpt lat="47.53282" lon="-2.30504">
        <ele>44.299999</ele>
        <time>2012-01-04T11:09:14Z</time>
      </trkpt>
      <trkpt lat="47.53291" lon="-2.30501">
        <ele>43.799999</ele>
        <time>2012-01-04T11:09:15Z</time>
      </trkpt>
      <trkpt lat="47.53299" lon="-2.30499">
        <ele>42.799999</ele>
        <time>2012-01-04T11:09:16Z</time>
      </trkpt>
      <trkpt lat="47.53307" lon="-2.30497">
        <ele>42</ele>
        <time>2012-01-04T11:09:17Z</time>
      </trkpt>
      <trkpt lat="47.53314" lon="-2.30495">
        <ele>41.400002</ele>
        <time>2012-01-04T11:09:18Z</time>
      </trkpt>
      <trkpt lat="47.53321" lon="-2.30493">
        <ele>40.700001</ele>
        <time>2012-01-04T11:09:19Z</time>
      </trkpt>
      <trkpt lat="47.53327" lon="-2.30492">
        <ele>40.099998</ele>
        <time>2012-01-04T11:09:20Z</time>
      </trkpt>
      <trkpt lat="47.53333" lon="-2.30491">
        <ele>39.700001</ele>
        <time>2012-01-04T11:09:21Z</time>
      </trkpt>
      <trkpt lat="47.53339" lon="-2.3049">
        <ele>38.700001</ele>
        <time>2012-01-04T11:09:22Z</time>
      </trkpt>
      <trkpt lat="47.53343" lon="-2.30492">
        <ele>38</ele>
        <time>2012-01-04T11:09:23Z</time>
      </trkpt>
      <trkpt lat="47.5335" lon="-2.30499">
        <ele>37.700001</ele>
        <time>2012-01-04T11:09:25Z</time>
      </trkpt>
      <trkpt lat="47.53352" lon="-2.30504">
        <ele>37.799999</ele>
        <time>2012-01-04T11:09:26Z</time>
      </trkpt>
      <trkpt lat="47.53355" lon="-2.3052">
        <ele>37.5</ele>
        <time>2012-01-04T11:09:29Z</time>
      </trkpt>
      <trkpt lat="47.53357" lon="-2.3053">
        <ele>36.799999</ele>
        <time>2012-01-04T11:09:31Z</time>
      </trkpt>
      <trkpt lat="47.53358" lon="-2.3054">
        <ele>36.5</ele>
        <time>2012-01-04T11:09:33Z</time>
      </trkpt>
      <trkpt lat="47.5336" lon="-2.30549">
        <ele>36.200001</ele>
        <time>2012-01-04T11:09:35Z</time>
      </trkpt>
      <trkpt lat="47.53361" lon="-2.30562">
        <ele>36.099998</ele>
        <time>2012-01-04T11:09:38Z</time>
      </trkpt>
      <trkpt lat="47.53363" lon="-2.30573">
        <ele>37.5</ele>
        <time>2012-01-04T11:09:42Z</time>
      </trkpt>
      <trkpt lat="47.53366" lon="-2.30584">
        <ele>37.700001</ele>
        <time>2012-01-04T11:09:46Z</time>
      </trkpt>
      <trkpt lat="47.53374" lon="-2.30589">
        <ele>39.599998</ele>
        <time>2012-01-04T11:09:51Z</time>
      </trkpt>
      <trkpt lat="47.53382" lon="-2.30593">
        <ele>40.099998</ele>
        <time>2012-01-04T11:09:56Z</time>
      </trkpt>
      <trkpt lat="47.5339" lon="-2.30599">
        <ele>40.299999</ele>
        <time>2012-01-04T11:10:01Z</time>
      </trkpt>
      <trkpt lat="47.53395" lon="-2.30605">
        <ele>40.700001</ele>
        <time>2012-01-04T11:10:04Z</time>
      </trkpt>
      <trkpt lat="47.534" lon="-2.30613">
        <ele>41.299999</ele>
        <time>2012-01-04T11:10:07Z</time>
      </trkpt>
      <trkpt lat="47.53404" lon="-2.30621">
        <ele>41.400002</ele>
        <time>2012-01-04T11:10:10Z</time>
      </trkpt>
      <trkpt lat="47.53408" lon="-2.3063">
        <ele>41.400002</ele>
        <time>2012-01-04T11:10:13Z</time>
      </trkpt>
      <trkpt lat="47.53412" lon="-2.3064">
        <ele>42.5</ele>
        <time>2012-01-04T11:10:17Z</time>
      </trkpt>
      <trkpt lat="47.53416" lon="-2.3065">
        <ele>43.700001</ele>
        <time>2012-01-04T11:10:21Z</time>
      </trkpt>
      <trkpt lat="47.5342" lon="-2.30659">
        <ele>44.200001</ele>
        <time>2012-01-04T11:10:24Z</time>
      </trkpt>
      <trkpt lat="47.53424" lon="-2.3067">
        <ele>44.400002</ele>
        <time>2012-01-04T11:10:28Z</time>
      </trkpt>
      <trkpt lat="47.53425" lon="-2.30672">
        <ele>44.299999</ele>
        <time>2012-01-04T11:10:29Z</time>
      </trkpt>
      <trkpt lat="47.53431" lon="-2.30691">
        <ele>44.400002</ele>
        <time>2012-01-04T11:10:36Z</time>
      </trkpt>
      <trkpt lat="47.53434" lon="-2.30703">
        <ele>44.700001</ele>
        <time>2012-01-04T11:10:40Z</time>
      </trkpt>
      <trkpt lat="47.53438" lon="-2.30715">
        <ele>45.200001</ele>
        <time>2012-01-04T11:10:44Z</time>
      </trkpt>
      <trkpt lat="47.53442" lon="-2.30725">
        <ele>43.700001</ele>
        <time>2012-01-04T11:10:47Z</time>
      </trkpt>
      <trkpt lat="47.53445" lon="-2.30735">
        <ele>43.900002</ele>
        <time>2012-01-04T11:10:50Z</time>
      </trkpt>
      <trkpt lat="47.53448" lon="-2.30745">
        <ele>44.400002</ele>
        <time>2012-01-04T11:10:53Z</time>
      </trkpt>
      <trkpt lat="47.53451" lon="-2.30756">
        <ele>45.099998</ele>
        <time>2012-01-04T11:10:56Z</time>
      </trkpt>
      <trkpt lat="47.53454" lon="-2.30767">
        <ele>44.799999</ele>
        <time>2012-01-04T11:10:59Z</time>
      </trkpt>
      <trkpt lat="47.53456" lon="-2.30778">
        <ele>45.799999</ele>
        <time>2012-01-04T11:11:02Z</time>
      </trkpt>
      <trkpt lat="47.5346" lon="-2.3079">
        <ele>45.400002</ele>
        <time>2012-01-04T11:11:05Z</time>
      </trkpt>
      <trkpt lat="47.53463" lon="-2.30799">
        <ele>45.400002</ele>
        <time>2012-01-04T11:11:07Z</time>
      </trkpt>
      <trkpt lat="47.53467" lon="-2.30808">
        <ele>45.799999</ele>
        <time>2012-01-04T11:11:09Z</time>
      </trkpt>
      <trkpt lat="47.53471" lon="-2.30817">
        <ele>45.599998</ele>
        <time>2012-01-04T11:11:11Z</time>
      </trkpt>
      <trkpt lat="47.53475" lon="-2.30828">
        <ele>45.299999</ele>
        <time>2012-01-04T11:11:13Z</time>
      </trkpt>
      <trkpt lat="47.5348" lon="-2.30838">
        <ele>45</ele>
        <time>2012-01-04T11:11:15Z</time>
      </trkpt>
      <trkpt lat="47.53482" lon="-2.30844">
        <ele>45</ele>
        <time>2012-01-04T11:11:16Z</time>
      </trkpt>
      <trkpt lat="47.53485" lon="-2.30851">
        <ele>44.400002</ele>
        <time>2012-01-04T11:11:17Z</time>
      </trkpt>
      <trkpt lat="47.53487" lon="-2.30857">
        <ele>43.900002</ele>
        <time>2012-01-04T11:11:18Z</time>
      </trkpt>
      <trkpt lat="47.5349" lon="-2.30863">
        <ele>43.599998</ele>
        <time>2012-01-04T11:11:19Z</time>
      </trkpt>
      <trkpt lat="47.53492" lon="-2.3087">
        <ele>43.400002</ele>
        <time>2012-01-04T11:11:20Z</time>
      </trkpt>
      <trkpt lat="47.53494" lon="-2.30876">
        <ele>43.200001</ele>
        <time>2012-01-04T11:11:21Z</time>
      </trkpt>
      <trkpt lat="47.53497" lon="-2.30882">
        <ele>43.099998</ele>
        <time>2012-01-04T11:11:22Z</time>
      </trkpt>
      <trkpt lat="47.53501" lon="-2.30893">
        <ele>42.700001</ele>
        <time>2012-01-04T11:11:24Z</time>
      </trkpt>
      <trkpt lat="47.53502" lon="-2.30899">
        <ele>42.400002</ele>
        <time>2012-01-04T11:11:25Z</time>
      </trkpt>
      <trkpt lat="47.53505" lon="-2.30905">
        <ele>42.200001</ele>
        <time>2012-01-04T11:11:26Z</time>
      </trkpt>
      <trkpt lat="47.53509" lon="-2.30911">
        <ele>41.799999</ele>
        <time>2012-01-04T11:11:27Z</time>
      </trkpt>
      <trkpt lat="47.53513" lon="-2.30917">
        <ele>41.5</ele>
        <time>2012-01-04T11:11:28Z</time>
      </trkpt>
      <trkpt lat="47.53516" lon="-2.30923">
        <ele>41.299999</ele>
        <time>2012-01-04T11:11:29Z</time>
      </trkpt>
      <trkpt lat="47.5352" lon="-2.30931">
        <ele>41.299999</ele>
        <time>2012-01-04T11:11:30Z</time>
      </trkpt>
      <trkpt lat="47.53522" lon="-2.30939">
        <ele>41.299999</ele>
        <time>2012-01-04T11:11:31Z</time>
      </trkpt>
      <trkpt lat="47.53523" lon="-2.30949">
        <ele>41.299999</ele>
        <time>2012-01-04T11:11:32Z</time>
      </trkpt>
      <trkpt lat="47.53523" lon="-2.30958">
        <ele>40.5</ele>
        <time>2012-01-04T11:11:33Z</time>
      </trkpt>
      <trkpt lat="47.53521" lon="-2.30965">
        <ele>39.799999</ele>
        <time>2012-01-04T11:11:34Z</time>
      </trkpt>
      <trkpt lat="47.53517" lon="-2.30971">
        <ele>39.400002</ele>
        <time>2012-01-04T11:11:35Z</time>
      </trkpt>
      <trkpt lat="47.53513" lon="-2.30976">
        <ele>39</ele>
        <time>2012-01-04T11:11:36Z</time>
      </trkpt>
      <trkpt lat="47.53509" lon="-2.30979">
        <ele>38.700001</ele>
        <time>2012-01-04T11:11:37Z</time>
      </trkpt>
      <trkpt lat="47.53504" lon="-2.30982">
        <ele>38.5</ele>
        <time>2012-01-04T11:11:38Z</time>
      </trkpt>
      <trkpt lat="47.53496" lon="-2.30985">
        <ele>39.200001</ele>
        <time>2012-01-04T11:11:40Z</time>
      </trkpt>
      <trkpt lat="47.53488" lon="-2.30987">
        <ele>39.5</ele>
        <time>2012-01-04T11:11:42Z</time>
      </trkpt>
      <trkpt lat="47.53481" lon="-2.30989">
        <ele>39.099998</ele>
        <time>2012-01-04T11:11:44Z</time>
      </trkpt>
      <trkpt lat="47.53474" lon="-2.30992">
        <ele>39.099998</ele>
        <time>2012-01-04T11:11:46Z</time>
      </trkpt>
      <trkpt lat="47.53468" lon="-2.30994">
        <ele>39.299999</ele>
        <time>2012-01-04T11:11:48Z</time>
      </trkpt>
      <trkpt lat="47.53459" lon="-2.30997">
        <ele>39.900002</ele>
        <time>2012-01-04T11:11:51Z</time>
      </trkpt>
      <trkpt lat="47.53451" lon="-2.30999">
        <ele>41.299999</ele>
        <time>2012-01-04T11:11:54Z</time>
      </trkpt>
      <trkpt lat="47.53442" lon="-2.31001">
        <ele>42.400002</ele>
        <time>2012-01-04T11:11:58Z</time>
      </trkpt>
      <trkpt lat="47.53435" lon="-2.31008">
        <ele>42.799999</ele>
        <time>2012-01-04T11:12:04Z</time>
      </trkpt>
      <trkpt lat="47.53436" lon="-2.31021">
        <ele>42.599998</ele>
        <time>2012-01-04T11:12:08Z</time>
      </trkpt>
      <trkpt lat="47.53438" lon="-2.31032">
        <ele>42.200001</ele>
        <time>2012-01-04T11:12:11Z</time>
      </trkpt>
      <trkpt lat="47.53441" lon="-2.31044">
        <ele>41.900002</ele>
        <time>2012-01-04T11:12:14Z</time>
      </trkpt>
      <trkpt lat="47.53445" lon="-2.31054">
        <ele>42.099998</ele>
        <time>2012-01-04T11:12:17Z</time>
      </trkpt>
      <trkpt lat="47.5345" lon="-2.31065">
        <ele>42.299999</ele>
        <time>2012-01-04T11:12:20Z</time>
      </trkpt>
      <trkpt lat="47.53457" lon="-2.31074">
        <ele>42</ele>
        <time>2012-01-04T11:12:23Z</time>
      </trkpt>
      <trkpt lat="47.53461" lon="-2.3108">
        <ele>41.5</ele>
        <time>2012-01-04T11:12:25Z</time>
      </trkpt>
      <trkpt lat="47.53467" lon="-2.31089">
        <ele>41.200001</ele>
        <time>2012-01-04T11:12:28Z</time>
      </trkpt>
      <trkpt lat="47.53474" lon="-2.31097">
        <ele>41.400002</ele>
        <time>2012-01-04T11:12:31Z</time>
      </trkpt>
      <trkpt lat="47.53475" lon="-2.311">
        <ele>41.5</ele>
        <time>2012-01-04T11:12:32Z</time>
      </trkpt>
      <trkpt lat="47.53484" lon="-2.31115">
        <ele>42.5</ele>
        <time>2012-01-04T11:12:47Z</time>
      </trkpt>
      <trkpt lat="47.5349" lon="-2.31124">
        <ele>42</ele>
        <time>2012-01-04T11:13:31Z</time>
      </trkpt>
      <trkpt lat="47.53495" lon="-2.31134">
        <ele>42.299999</ele>
        <time>2012-01-04T11:13:34Z</time>
      </trkpt>
      <trkpt lat="47.53496" lon="-2.31138">
        <ele>42.5</ele>
        <time>2012-01-04T11:13:35Z</time>
      </trkpt>
      <trkpt lat="47.53502" lon="-2.31157">
        <ele>42.400002</ele>
        <time>2012-01-04T11:13:42Z</time>
      </trkpt>
      <trkpt lat="47.53505" lon="-2.31167">
        <ele>42.299999</ele>
        <time>2012-01-04T11:13:46Z</time>
      </trkpt>
      <trkpt lat="47.53508" lon="-2.31178">
        <ele>42.799999</ele>
        <time>2012-01-04T11:13:49Z</time>
      </trkpt>
      <trkpt lat="47.53511" lon="-2.31189">
        <ele>42.900002</ele>
        <time>2012-01-04T11:13:52Z</time>
      </trkpt>
      <trkpt lat="47.53515" lon="-2.312">
        <ele>43.200001</ele>
        <time>2012-01-04T11:13:55Z</time>
      </trkpt>
      <trkpt lat="47.53519" lon="-2.31211">
        <ele>43.700001</ele>
        <time>2012-01-04T11:13:58Z</time>
      </trkpt>
      <trkpt lat="47.53521" lon="-2.31219">
        <ele>44.099998</ele>
        <time>2012-01-04T11:14:00Z</time>
      </trkpt>
      <trkpt lat="47.53525" lon="-2.31232">
        <ele>44.400002</ele>
        <time>2012-01-04T11:14:03Z</time>
      </trkpt>
      <trkpt lat="47.53528" lon="-2.31244">
        <ele>44.700001</ele>
        <time>2012-01-04T11:14:06Z</time>
      </trkpt>
      <trkpt lat="47.53531" lon="-2.31256">
        <ele>44.900002</ele>
        <time>2012-01-04T11:14:09Z</time>
      </trkpt>
      <trkpt lat="47.53534" lon="-2.31267">
        <ele>44.700001</ele>
        <time>2012-01-04T11:14:12Z</time>
      </trkpt>
      <trkpt lat="47.53537" lon="-2.31278">
        <ele>45.200001</ele>
        <time>2012-01-04T11:14:15Z</time>
      </trkpt>
      <trkpt lat="47.53541" lon="-2.31289">
        <ele>46.400002</ele>
        <time>2012-01-04T11:14:18Z</time>
      </trkpt>
      <trkpt lat="47.53545" lon="-2.31299">
        <ele>46.700001</ele>
        <time>2012-01-04T11:14:21Z</time>
      </trkpt>
      <trkpt lat="47.53548" lon="-2.31308">
        <ele>46.700001</ele>
        <time>2012-01-04T11:14:24Z</time>
      </trkpt>
      <trkpt lat="47.53552" lon="-2.31317">
        <ele>47.700001</ele>
        <time>2012-01-04T11:14:27Z</time>
      </trkpt>
      <trkpt lat="47.53556" lon="-2.31327">
        <ele>48</ele>
        <time>2012-01-04T11:14:30Z</time>
      </trkpt>
      <trkpt lat="47.5356" lon="-2.31336">
        <ele>48.200001</ele>
        <time>2012-01-04T11:14:33Z</time>
      </trkpt>
      <trkpt lat="47.53564" lon="-2.31346">
        <ele>48.900002</ele>
        <time>2012-01-04T11:14:36Z</time>
      </trkpt>
      <trkpt lat="47.53566" lon="-2.31349">
        <ele>49.099998</ele>
        <time>2012-01-04T11:14:37Z</time>
      </trkpt>
      <trkpt lat="47.53572" lon="-2.31365">
        <ele>50.799999</ele>
        <time>2012-01-04T11:14:42Z</time>
      </trkpt>
      <trkpt lat="47.53576" lon="-2.31375">
        <ele>50.599998</ele>
        <time>2012-01-04T11:14:45Z</time>
      </trkpt>
      <trkpt lat="47.53581" lon="-2.31385">
        <ele>50</ele>
        <time>2012-01-04T11:14:48Z</time>
      </trkpt>
      <trkpt lat="47.53585" lon="-2.31396">
        <ele>50.099998</ele>
        <time>2012-01-04T11:14:51Z</time>
      </trkpt>
      <trkpt lat="47.53588" lon="-2.31404">
        <ele>49.900002</ele>
        <time>2012-01-04T11:14:53Z</time>
      </trkpt>
      <trkpt lat="47.53592" lon="-2.31412">
        <ele>50.700001</ele>
        <time>2012-01-04T11:14:55Z</time>
      </trkpt>
      <trkpt lat="47.53595" lon="-2.3142">
        <ele>50.700001</ele>
        <time>2012-01-04T11:14:57Z</time>
      </trkpt>
      <trkpt lat="47.536" lon="-2.31431">
        <ele>50.200001</ele>
        <time>2012-01-04T11:15:00Z</time>
      </trkpt>
      <trkpt lat="47.53603" lon="-2.31439">
        <ele>49.900002</ele>
        <time>2012-01-04T11:15:02Z</time>
      </trkpt>
      <trkpt lat="47.53606" lon="-2.31447">
        <ele>49.799999</ele>
        <time>2012-01-04T11:15:04Z</time>
      </trkpt>
      <trkpt lat="47.5361" lon="-2.31457">
        <ele>49.900002</ele>
        <time>2012-01-04T11:15:06Z</time>
      </trkpt>
      <trkpt lat="47.53614" lon="-2.31466">
        <ele>49.799999</ele>
        <time>2012-01-04T11:15:08Z</time>
      </trkpt>
      <trkpt lat="47.53618" lon="-2.31476">
        <ele>49.799999</ele>
        <time>2012-01-04T11:15:10Z</time>
      </trkpt>
      <trkpt lat="47.53623" lon="-2.31486">
        <ele>49.799999</ele>
        <time>2012-01-04T11:15:12Z</time>
      </trkpt>
      <trkpt lat="47.53627" lon="-2.31497">
        <ele>49.700001</ele>
        <time>2012-01-04T11:15:14Z</time>
      </trkpt>
      <trkpt lat="47.53632" lon="-2.31507">
        <ele>49.200001</ele>
        <time>2012-01-04T11:15:16Z</time>
      </trkpt>
      <trkpt lat="47.53637" lon="-2.31519">
        <ele>48.700001</ele>
        <time>2012-01-04T11:15:18Z</time>
      </trkpt>
      <trkpt lat="47.5364" lon="-2.31524">
        <ele>48.5</ele>
        <time>2012-01-04T11:15:19Z</time>
      </trkpt>
      <trkpt lat="47.53642" lon="-2.3153">
        <ele>48.599998</ele>
        <time>2012-01-04T11:15:20Z</time>
      </trkpt>
      <trkpt lat="47.53645" lon="-2.31536">
        <ele>48.599998</ele>
        <time>2012-01-04T11:15:21Z</time>
      </trkpt>
      <trkpt lat="47.53648" lon="-2.31542">
        <ele>48.700001</ele>
        <time>2012-01-04T11:15:22Z</time>
      </trkpt>
      <trkpt lat="47.5365" lon="-2.31548">
        <ele>48.5</ele>
        <time>2012-01-04T11:15:23Z</time>
      </trkpt>
      <trkpt lat="47.53653" lon="-2.31553">
        <ele>48.400002</ele>
        <time>2012-01-04T11:15:24Z</time>
      </trkpt>
      <trkpt lat="47.53657" lon="-2.31558">
        <ele>48.299999</ele>
        <time>2012-01-04T11:15:25Z</time>
      </trkpt>
      <trkpt lat="47.53663" lon="-2.31568">
        <ele>47.900002</ele>
        <time>2012-01-04T11:15:27Z</time>
      </trkpt>
      <trkpt lat="47.53669" lon="-2.31576">
        <ele>47.700001</ele>
        <time>2012-01-04T11:15:29Z</time>
      </trkpt>
      <trkpt lat="47.53675" lon="-2.31584">
        <ele>47.5</ele>
        <time>2012-01-04T11:15:31Z</time>
      </trkpt>
      <trkpt lat="47.53681" lon="-2.31589">
        <ele>46.5</ele>
        <time>2012-01-04T11:15:33Z</time>
      </trkpt>
      <trkpt lat="47.53688" lon="-2.31588">
        <ele>46</ele>
        <time>2012-01-04T11:15:35Z</time>
      </trkpt>
      <trkpt lat="47.53694" lon="-2.31588">
        <ele>45.900002</ele>
        <time>2012-01-04T11:15:37Z</time>
      </trkpt>
      <trkpt lat="47.53697" lon="-2.31589">
        <ele>45.900002</ele>
        <time>2012-01-04T11:15:38Z</time>
      </trkpt>
      <trkpt lat="47.53709" lon="-2.31587">
        <ele>44.599998</ele>
        <time>2012-01-04T11:15:42Z</time>
      </trkpt>
      <trkpt lat="47.53717" lon="-2.31586">
        <ele>44.400002</ele>
        <time>2012-01-04T11:15:45Z</time>
      </trkpt>
      <trkpt lat="47.53726" lon="-2.31589">
        <ele>44.400002</ele>
        <time>2012-01-04T11:15:48Z</time>
      </trkpt>
      <trkpt lat="47.53732" lon="-2.31592">
        <ele>44.599998</ele>
        <time>2012-01-04T11:15:50Z</time>
      </trkpt>
      <trkpt lat="47.5374" lon="-2.31594">
        <ele>44.599998</ele>
        <time>2012-01-04T11:15:53Z</time>
      </trkpt>
      <trkpt lat="47.53748" lon="-2.31594">
        <ele>44.700001</ele>
        <time>2012-01-04T11:15:56Z</time>
      </trkpt>
      <trkpt lat="47.53756" lon="-2.31591">
        <ele>45.700001</ele>
        <time>2012-01-04T11:16:00Z</time>
      </trkpt>
      <trkpt lat="47.53763" lon="-2.3159">
        <ele>45.700001</ele>
        <time>2012-01-04T11:16:04Z</time>
      </trkpt>
      <trkpt lat="47.5377" lon="-2.31585">
        <ele>45.700001</ele>
        <time>2012-01-04T11:16:07Z</time>
      </trkpt>
      <trkpt lat="47.53778" lon="-2.31582">
        <ele>46.099998</ele>
        <time>2012-01-04T11:16:10Z</time>
      </trkpt>
      <trkpt lat="47.53786" lon="-2.31579">
        <ele>46.299999</ele>
        <time>2012-01-04T11:16:13Z</time>
      </trkpt>
      <trkpt lat="47.53792" lon="-2.31573">
        <ele>45.400002</ele>
        <time>2012-01-04T11:16:16Z</time>
      </trkpt>
      <trkpt lat="47.53798" lon="-2.31568">
        <ele>45.400002</ele>
        <time>2012-01-04T11:16:19Z</time>
      </trkpt>
      <trkpt lat="47.53806" lon="-2.31561">
        <ele>45.400002</ele>
        <time>2012-01-04T11:16:25Z</time>
      </trkpt>
      <trkpt lat="47.53814" lon="-2.3156">
        <ele>44.299999</ele>
        <time>2012-01-04T11:16:39Z</time>
      </trkpt>
      <trkpt lat="47.53815" lon="-2.31561">
        <ele>44.200001</ele>
        <time>2012-01-04T11:16:40Z</time>
      </trkpt>
      <trkpt lat="47.53821" lon="-2.31584">
        <ele>39.700001</ele>
        <time>2012-01-04T11:17:06Z</time>
      </trkpt>
      <trkpt lat="47.53821" lon="-2.31595">
        <ele>39.700001</ele>
        <time>2012-01-04T11:17:14Z</time>
      </trkpt>
      <trkpt lat="47.5382" lon="-2.31607">
        <ele>40.099998</ele>
        <time>2012-01-04T11:17:21Z</time>
      </trkpt>
      <trkpt lat="47.53819" lon="-2.31619">
        <ele>41.700001</ele>
        <time>2012-01-04T11:17:29Z</time>
      </trkpt>
      <trkpt lat="47.53819" lon="-2.31631">
        <ele>41.799999</ele>
        <time>2012-01-04T11:17:37Z</time>
      </trkpt>
      <trkpt lat="47.53817" lon="-2.31643">
        <ele>42.700001</ele>
        <time>2012-01-04T11:17:44Z</time>
      </trkpt>
      <trkpt lat="47.53817" lon="-2.31645">
        <ele>42.900002</ele>
        <time>2012-01-04T11:17:45Z</time>
      </trkpt>
      <trkpt lat="47.53811" lon="-2.31666">
        <ele>43.099998</ele>
        <time>2012-01-04T11:17:59Z</time>
      </trkpt>
      <trkpt lat="47.5381" lon="-2.31675">
        <ele>43.700001</ele>
        <time>2012-01-04T11:18:02Z</time>
      </trkpt>
      <trkpt lat="47.53809" lon="-2.31687">
        <ele>43.400002</ele>
        <time>2012-01-04T11:18:05Z</time>
      </trkpt>
      <trkpt lat="47.53808" lon="-2.31699">
        <ele>44.099998</ele>
        <time>2012-01-04T11:18:08Z</time>
      </trkpt>
      <trkpt lat="47.53806" lon="-2.3171">
        <ele>43.799999</ele>
        <time>2012-01-04T11:18:11Z</time>
      </trkpt>
      <trkpt lat="47.53805" lon="-2.3172">
        <ele>43.5</ele>
        <time>2012-01-04T11:18:14Z</time>
      </trkpt>
      <trkpt lat="47.53804" lon="-2.31731">
        <ele>44.599998</ele>
        <time>2012-01-04T11:18:17Z</time>
      </trkpt>
      <trkpt lat="47.53804" lon="-2.31742">
        <ele>45.299999</ele>
        <time>2012-01-04T11:18:20Z</time>
      </trkpt>
      <trkpt lat="47.53804" lon="-2.31752">
        <ele>45.799999</ele>
        <time>2012-01-04T11:18:23Z</time>
      </trkpt>
      <trkpt lat="47.53808" lon="-2.31761">
        <ele>46</ele>
        <time>2012-01-04T11:18:26Z</time>
      </trkpt>
      <trkpt lat="47.53815" lon="-2.31769">
        <ele>46.200001</ele>
        <time>2012-01-04T11:18:29Z</time>
      </trkpt>
      <trkpt lat="47.53821" lon="-2.31777">
        <ele>46</ele>
        <time>2012-01-04T11:18:32Z</time>
      </trkpt>
      <trkpt lat="47.53827" lon="-2.31785">
        <ele>45.900002</ele>
        <time>2012-01-04T11:18:35Z</time>
      </trkpt>
      <trkpt lat="47.53834" lon="-2.31793">
        <ele>45.900002</ele>
        <time>2012-01-04T11:18:38Z</time>
      </trkpt>
      <trkpt lat="47.5384" lon="-2.31803">
        <ele>46.299999</ele>
        <time>2012-01-04T11:18:41Z</time>
      </trkpt>
      <trkpt lat="47.53845" lon="-2.31813">
        <ele>47</ele>
        <time>2012-01-04T11:18:44Z</time>
      </trkpt>
      <trkpt lat="47.53851" lon="-2.31822">
        <ele>47.799999</ele>
        <time>2012-01-04T11:18:47Z</time>
      </trkpt>
      <trkpt lat="47.53853" lon="-2.31826">
        <ele>48.299999</ele>
        <time>2012-01-04T11:18:48Z</time>
      </trkpt>
      <trkpt lat="47.5386" lon="-2.31841">
        <ele>48.5</ele>
        <time>2012-01-04T11:18:53Z</time>
      </trkpt>
      <trkpt lat="47.53868" lon="-2.31844">
        <ele>48.400002</ele>
        <time>2012-01-04T11:18:58Z</time>
      </trkpt>
      <trkpt lat="47.53876" lon="-2.3184">
        <ele>49.099998</ele>
        <time>2012-01-04T11:19:02Z</time>
      </trkpt>
      <trkpt lat="47.53884" lon="-2.31839">
        <ele>49.700001</ele>
        <time>2012-01-04T11:19:06Z</time>
      </trkpt>
      <trkpt lat="47.53891" lon="-2.31839">
        <ele>49.5</ele>
        <time>2012-01-04T11:19:09Z</time>
      </trkpt>
      <trkpt lat="47.53898" lon="-2.3184">
        <ele>49.900002</ele>
        <time>2012-01-04T11:19:12Z</time>
      </trkpt>
      <trkpt lat="47.53905" lon="-2.31842">
        <ele>49.900002</ele>
        <time>2012-01-04T11:19:15Z</time>
      </trkpt>
      <trkpt lat="47.53912" lon="-2.31843">
        <ele>50.700001</ele>
        <time>2012-01-04T11:19:18Z</time>
      </trkpt>
      <trkpt lat="47.5392" lon="-2.31844">
        <ele>51.200001</ele>
        <time>2012-01-04T11:19:21Z</time>
      </trkpt>
      <trkpt lat="47.53927" lon="-2.31845">
        <ele>51.299999</ele>
        <time>2012-01-04T11:19:24Z</time>
      </trkpt>
      <trkpt lat="47.53935" lon="-2.31847">
        <ele>51.700001</ele>
        <time>2012-01-04T11:19:27Z</time>
      </trkpt>
      <trkpt lat="47.53943" lon="-2.31847">
        <ele>52</ele>
        <time>2012-01-04T11:19:30Z</time>
      </trkpt>
      <trkpt lat="47.5395" lon="-2.31848">
        <ele>52.200001</ele>
        <time>2012-01-04T11:19:33Z</time>
      </trkpt>
      <trkpt lat="47.53957" lon="-2.31849">
        <ele>52.400002</ele>
        <time>2012-01-04T11:19:36Z</time>
      </trkpt>
      <trkpt lat="47.53964" lon="-2.31847">
        <ele>52.400002</ele>
        <time>2012-01-04T11:19:39Z</time>
      </trkpt>
      <trkpt lat="47.5397" lon="-2.31846">
        <ele>52.5</ele>
        <time>2012-01-04T11:19:41Z</time>
      </trkpt>
      <trkpt lat="47.53978" lon="-2.31844">
        <ele>52.599998</ele>
        <time>2012-01-04T11:19:43Z</time>
      </trkpt>
      <trkpt lat="47.53986" lon="-2.31841">
        <ele>52.299999</ele>
        <time>2012-01-04T11:19:45Z</time>
      </trkpt>
      <trkpt lat="47.53991" lon="-2.31839">
        <ele>52.099998</ele>
        <time>2012-01-04T11:19:46Z</time>
      </trkpt>
      <trkpt lat="47.53995" lon="-2.31838">
        <ele>52</ele>
        <time>2012-01-04T11:19:47Z</time>
      </trkpt>
      <trkpt lat="47.54003" lon="-2.31834">
        <ele>50.900002</ele>
        <time>2012-01-04T11:19:49Z</time>
      </trkpt>
      <trkpt lat="47.54007" lon="-2.31832">
        <ele>50.5</ele>
        <time>2012-01-04T11:19:50Z</time>
      </trkpt>
      <trkpt lat="47.54017" lon="-2.31827">
        <ele>49.700001</ele>
        <time>2012-01-04T11:19:53Z</time>
      </trkpt>
      <trkpt lat="47.54024" lon="-2.31822">
        <ele>48.900002</ele>
        <time>2012-01-04T11:19:56Z</time>
      </trkpt>
      <trkpt lat="47.5403" lon="-2.31817">
        <ele>46.5</ele>
        <time>2012-01-04T11:19:59Z</time>
      </trkpt>
      <trkpt lat="47.54038" lon="-2.31816">
        <ele>45.700001</ele>
        <time>2012-01-04T11:20:02Z</time>
      </trkpt>
      <trkpt lat="47.54044" lon="-2.31813">
        <ele>45.200001</ele>
        <time>2012-01-04T11:20:04Z</time>
      </trkpt>
      <trkpt lat="47.5405" lon="-2.31808">
        <ele>44.700001</ele>
        <time>2012-01-04T11:20:06Z</time>
      </trkpt>
      <trkpt lat="47.54057" lon="-2.318">
        <ele>43.799999</ele>
        <time>2012-01-04T11:20:08Z</time>
      </trkpt>
      <trkpt lat="47.54059" lon="-2.31794">
        <ele>43.5</ele>
        <time>2012-01-04T11:20:09Z</time>
      </trkpt>
      <trkpt lat="47.54061" lon="-2.31787">
        <ele>42.900002</ele>
        <time>2012-01-04T11:20:10Z</time>
      </trkpt>
      <trkpt lat="47.54064" lon="-2.3178">
        <ele>42.5</ele>
        <time>2012-01-04T11:20:11Z</time>
      </trkpt>
      <trkpt lat="47.54066" lon="-2.31773">
        <ele>42.200001</ele>
        <time>2012-01-04T11:20:12Z</time>
      </trkpt>
      <trkpt lat="47.54067" lon="-2.31767">
        <ele>41.099998</ele>
        <time>2012-01-04T11:20:13Z</time>
      </trkpt>
      <trkpt lat="47.5407" lon="-2.3176">
        <ele>40.400002</ele>
        <time>2012-01-04T11:20:14Z</time>
      </trkpt>
      <trkpt lat="47.54074" lon="-2.3175">
        <ele>39.299999</ele>
        <time>2012-01-04T11:20:16Z</time>
      </trkpt>
      <trkpt lat="47.54079" lon="-2.31741">
        <ele>37.299999</ele>
        <time>2012-01-04T11:20:19Z</time>
      </trkpt>
      <trkpt lat="47.54085" lon="-2.31733">
        <ele>36.5</ele>
        <time>2012-01-04T11:20:22Z</time>
      </trkpt>
      <trkpt lat="47.54091" lon="-2.31727">
        <ele>35.299999</ele>
        <time>2012-01-04T11:20:24Z</time>
      </trkpt>
      <trkpt lat="47.54096" lon="-2.3172">
        <ele>34.400002</ele>
        <time>2012-01-04T11:20:26Z</time>
      </trkpt>
      <trkpt lat="47.541" lon="-2.31714">
        <ele>33.799999</ele>
        <time>2012-01-04T11:20:28Z</time>
      </trkpt>
      <trkpt lat="47.54105" lon="-2.31708">
        <ele>32.5</ele>
        <time>2012-01-04T11:20:30Z</time>
      </trkpt>
      <trkpt lat="47.54112" lon="-2.31703">
        <ele>30.5</ele>
        <time>2012-01-04T11:20:33Z</time>
      </trkpt>
      <trkpt lat="47.54119" lon="-2.3171">
        <ele>29.4</ele>
        <time>2012-01-04T11:20:38Z</time>
      </trkpt>
      <trkpt lat="47.54122" lon="-2.31721">
        <ele>28.6</ele>
        <time>2012-01-04T11:20:42Z</time>
      </trkpt>
      <trkpt lat="47.54125" lon="-2.31731">
        <ele>29.4</ele>
        <time>2012-01-04T11:20:46Z</time>
      </trkpt>
      <trkpt lat="47.54132" lon="-2.31739">
        <ele>28.299999</ele>
        <time>2012-01-04T11:21:34Z</time>
      </trkpt>
      <trkpt lat="47.54133" lon="-2.31739">
        <ele>28.1</ele>
        <time>2012-01-04T11:21:35Z</time>
      </trkpt>
      <trkpt lat="47.54141" lon="-2.31757">
        <ele>30</ele>
        <time>2012-01-04T11:22:35Z</time>
      </trkpt>
      <trkpt lat="47.54142" lon="-2.3176">
        <ele>30</ele>
        <time>2012-01-04T11:22:36Z</time>
      </trkpt>
      <trkpt lat="47.54149" lon="-2.31777">
        <ele>30.6</ele>
        <time>2012-01-04T11:22:42Z</time>
      </trkpt>
      <trkpt lat="47.54154" lon="-2.31787">
        <ele>31.5</ele>
        <time>2012-01-04T11:22:46Z</time>
      </trkpt>
      <trkpt lat="47.5416" lon="-2.31797">
        <ele>32</ele>
        <time>2012-01-04T11:22:50Z</time>
      </trkpt>
      <trkpt lat="47.54165" lon="-2.31807">
        <ele>32.700001</ele>
        <time>2012-01-04T11:22:54Z</time>
      </trkpt>
      <trkpt lat="47.5417" lon="-2.31817">
        <ele>33</ele>
        <time>2012-01-04T11:23:01Z</time>
      </trkpt>
      <trkpt lat="47.54175" lon="-2.31826">
        <ele>33.700001</ele>
        <time>2012-01-04T11:23:07Z</time>
      </trkpt>
      <trkpt lat="47.54181" lon="-2.31836">
        <ele>34.700001</ele>
        <time>2012-01-04T11:23:14Z</time>
      </trkpt>
      <trkpt lat="47.54184" lon="-2.31847">
        <ele>35.299999</ele>
        <time>2012-01-04T11:23:21Z</time>
      </trkpt>
      <trkpt lat="47.54185" lon="-2.31858">
        <ele>36.799999</ele>
        <time>2012-01-04T11:23:27Z</time>
      </trkpt>
      <trkpt lat="47.54185" lon="-2.3187">
        <ele>36.599998</ele>
        <time>2012-01-04T11:23:33Z</time>
      </trkpt>
      <trkpt lat="47.54185" lon="-2.31882">
        <ele>37.200001</ele>
        <time>2012-01-04T11:23:43Z</time>
      </trkpt>
      <trkpt lat="47.54186" lon="-2.31884">
        <ele>37.400002</ele>
        <time>2012-01-04T11:23:44Z</time>
      </trkpt>
      <trkpt lat="47.54187" lon="-2.31906">
        <ele>37.299999</ele>
        <time>2012-01-04T11:23:52Z</time>
      </trkpt>
      <trkpt lat="47.54188" lon="-2.31919">
        <ele>34.5</ele>
        <time>2012-01-04T11:24:15Z</time>
      </trkpt>
      <trkpt lat="47.54188" lon="-2.31931">
        <ele>35.5</ele>
        <time>2012-01-04T11:24:29Z</time>
      </trkpt>
      <trkpt lat="47.54188" lon="-2.31943">
        <ele>35.400002</ele>
        <time>2012-01-04T11:24:34Z</time>
      </trkpt>
      <trkpt lat="47.54187" lon="-2.31955">
        <ele>35.799999</ele>
        <time>2012-01-04T11:24:39Z</time>
      </trkpt>
      <trkpt lat="47.54185" lon="-2.31967">
        <ele>35.900002</ele>
        <time>2012-01-04T11:24:43Z</time>
      </trkpt>
      <trkpt lat="47.54183" lon="-2.31979">
        <ele>36.5</ele>
        <time>2012-01-04T11:24:48Z</time>
      </trkpt>
      <trkpt lat="47.54184" lon="-2.31981">
        <ele>36.599998</ele>
        <time>2012-01-04T11:24:49Z</time>
      </trkpt>
      <trkpt lat="47.54179" lon="-2.32003">
        <ele>37.599998</ele>
        <time>2012-01-04T11:25:12Z</time>
      </trkpt>
      <trkpt lat="47.54179" lon="-2.32014">
        <ele>37.5</ele>
        <time>2012-01-04T11:25:17Z</time>
      </trkpt>
      <trkpt lat="47.54181" lon="-2.32026">
        <ele>38.400002</ele>
        <time>2012-01-04T11:25:22Z</time>
      </trkpt>
      <trkpt lat="47.54183" lon="-2.32038">
        <ele>38.700001</ele>
        <time>2012-01-04T11:25:28Z</time>
      </trkpt>
      <trkpt lat="47.54182" lon="-2.32051">
        <ele>39.700001</ele>
        <time>2012-01-04T11:25:36Z</time>
      </trkpt>
      <trkpt lat="47.54182" lon="-2.32064">
        <ele>40.799999</ele>
        <time>2012-01-04T11:25:43Z</time>
      </trkpt>
      <trkpt lat="47.5418" lon="-2.32076">
        <ele>41.200001</ele>
        <time>2012-01-04T11:25:50Z</time>
      </trkpt>
      <trkpt lat="47.54179" lon="-2.32078">
        <ele>41.5</ele>
        <time>2012-01-04T11:25:51Z</time>
      </trkpt>
      <trkpt lat="47.54178" lon="-2.32102">
        <ele>42.400002</ele>
        <time>2012-01-04T11:26:04Z</time>
      </trkpt>
      <trkpt lat="47.54179" lon="-2.32114">
        <ele>43.200001</ele>
        <time>2012-01-04T11:26:08Z</time>
      </trkpt>
      <trkpt lat="47.5418" lon="-2.32126">
        <ele>43</ele>
        <time>2012-01-04T11:26:12Z</time>
      </trkpt>
      <trkpt lat="47.54181" lon="-2.32138">
        <ele>43.099998</ele>
        <time>2012-01-04T11:26:16Z</time>
      </trkpt>
      <trkpt lat="47.54181" lon="-2.3215">
        <ele>43.5</ele>
        <time>2012-01-04T11:26:20Z</time>
      </trkpt>
      <trkpt lat="47.54181" lon="-2.32162">
        <ele>45.599998</ele>
        <time>2012-01-04T11:26:27Z</time>
      </trkpt>
      <trkpt lat="47.5418" lon="-2.32175">
        <ele>44.900002</ele>
        <time>2012-01-04T11:26:41Z</time>
      </trkpt>
      <trkpt lat="47.54179" lon="-2.32187">
        <ele>44</ele>
        <time>2012-01-04T11:26:51Z</time>
      </trkpt>
      <trkpt lat="47.54179" lon="-2.32189">
        <ele>44</ele>
        <time>2012-01-04T11:26:52Z</time>
      </trkpt>
      <trkpt lat="47.54172" lon="-2.32209">
        <ele>44.400002</ele>
        <time>2012-01-04T11:27:00Z</time>
      </trkpt>
      <trkpt lat="47.54169" lon="-2.32219">
        <ele>44.099998</ele>
        <time>2012-01-04T11:27:04Z</time>
      </trkpt>
      <trkpt lat="47.54168" lon="-2.3223">
        <ele>44.400002</ele>
        <time>2012-01-04T11:27:08Z</time>
      </trkpt>
      <trkpt lat="47.54167" lon="-2.32243">
        <ele>44.400002</ele>
        <time>2012-01-04T11:27:14Z</time>
      </trkpt>
      <trkpt lat="47.54164" lon="-2.32254">
        <ele>44.400002</ele>
        <time>2012-01-04T11:27:21Z</time>
      </trkpt>
      <trkpt lat="47.54161" lon="-2.32264">
        <ele>45.5</ele>
        <time>2012-01-04T11:27:27Z</time>
      </trkpt>
      <trkpt lat="47.54157" lon="-2.32275">
        <ele>46.299999</ele>
        <time>2012-01-04T11:27:34Z</time>
      </trkpt>
      <trkpt lat="47.54155" lon="-2.32287">
        <ele>47.799999</ele>
        <time>2012-01-04T11:27:41Z</time>
      </trkpt>
      <trkpt lat="47.54153" lon="-2.32299">
        <ele>48.799999</ele>
        <time>2012-01-04T11:27:49Z</time>
      </trkpt>
      <trkpt lat="47.54154" lon="-2.32311">
        <ele>51.5</ele>
        <time>2012-01-04T11:27:57Z</time>
      </trkpt>
      <trkpt lat="47.54154" lon="-2.32312">
        <ele>51.599998</ele>
        <time>2012-01-04T11:27:58Z</time>
      </trkpt>
      <trkpt lat="47.54162" lon="-2.32332">
        <ele>54.099998</ele>
        <time>2012-01-04T11:28:15Z</time>
      </trkpt>
      <trkpt lat="47.54168" lon="-2.32338">
        <ele>53.700001</ele>
        <time>2012-01-04T11:28:19Z</time>
      </trkpt>
      <trkpt lat="47.54175" lon="-2.32344">
        <ele>55.299999</ele>
        <time>2012-01-04T11:28:25Z</time>
      </trkpt>
      <trkpt lat="47.54177" lon="-2.32355">
        <ele>55.799999</ele>
        <time>2012-01-04T11:28:31Z</time>
      </trkpt>
      <trkpt lat="47.54177" lon="-2.32366">
        <ele>56.200001</ele>
        <time>2012-01-04T11:28:35Z</time>
      </trkpt>
      <trkpt lat="47.54176" lon="-2.32379">
        <ele>56</ele>
        <time>2012-01-04T11:28:39Z</time>
      </trkpt>
      <trkpt lat="47.54176" lon="-2.32389">
        <ele>55.700001</ele>
        <time>2012-01-04T11:28:42Z</time>
      </trkpt>
      <trkpt lat="47.54175" lon="-2.324">
        <ele>55.900002</ele>
        <time>2012-01-04T11:28:45Z</time>
      </trkpt>
      <trkpt lat="47.54169" lon="-2.32409">
        <ele>55.799999</ele>
        <time>2012-01-04T11:28:49Z</time>
      </trkpt>
      <trkpt lat="47.54162" lon="-2.32414">
        <ele>53.5</ele>
        <time>2012-01-04T11:29:03Z</time>
      </trkpt>
      <trkpt lat="47.54159" lon="-2.32413">
        <ele>53.700001</ele>
        <time>2012-01-04T11:29:04Z</time>
      </trkpt>
      <trkpt lat="47.54148" lon="-2.32404">
        <ele>54.099998</ele>
        <time>2012-01-04T11:29:09Z</time>
      </trkpt>
      <trkpt lat="47.54143" lon="-2.32396">
        <ele>53.900002</ele>
        <time>2012-01-04T11:29:12Z</time>
      </trkpt>
      <trkpt lat="47.5414" lon="-2.32388">
        <ele>54.099998</ele>
        <time>2012-01-04T11:29:14Z</time>
      </trkpt>
      <trkpt lat="47.54136" lon="-2.3238">
        <ele>53.700001</ele>
        <time>2012-01-04T11:29:16Z</time>
      </trkpt>
      <trkpt lat="47.54131" lon="-2.32371">
        <ele>53.099998</ele>
        <time>2012-01-04T11:29:18Z</time>
      </trkpt>
      <trkpt lat="47.54124" lon="-2.32364">
        <ele>52.700001</ele>
        <time>2012-01-04T11:29:20Z</time>
      </trkpt>
      <trkpt lat="47.5412" lon="-2.32361">
        <ele>52.5</ele>
        <time>2012-01-04T11:29:21Z</time>
      </trkpt>
      <trkpt lat="47.54114" lon="-2.32359">
        <ele>52.400002</ele>
        <time>2012-01-04T11:29:22Z</time>
      </trkpt>
      <trkpt lat="47.54109" lon="-2.32357">
        <ele>52.299999</ele>
        <time>2012-01-04T11:29:23Z</time>
      </trkpt>
      <trkpt lat="47.54103" lon="-2.32354">
        <ele>52.200001</ele>
        <time>2012-01-04T11:29:24Z</time>
      </trkpt>
      <trkpt lat="47.54096" lon="-2.32351">
        <ele>52.200001</ele>
        <time>2012-01-04T11:29:25Z</time>
      </trkpt>
      <trkpt lat="47.54089" lon="-2.32349">
        <ele>51.700001</ele>
        <time>2012-01-04T11:29:26Z</time>
      </trkpt>
      <trkpt lat="47.54083" lon="-2.32345">
        <ele>51.400002</ele>
        <time>2012-01-04T11:29:27Z</time>
      </trkpt>
      <trkpt lat="47.54075" lon="-2.32346">
        <ele>50.900002</ele>
        <time>2012-01-04T11:29:29Z</time>
      </trkpt>
      <trkpt lat="47.54068" lon="-2.3235">
        <ele>50.5</ele>
        <time>2012-01-04T11:29:31Z</time>
      </trkpt>
    </trkseg>
  </trk>
</gpx>